<?xml version="1.0" encoding="UTF-8" standalone="no" ?>
<gpx xmlns="http://www.topografix.com/GPX/1/1" xmlns:xsi="http://www.w3.org/2001/XMLSchema-instance" xsi:schemaLocation="http://www.topografix.com/GPX/1/1 http://www.topografix.com/GPX/1/1/gpx.xsd" version="1.1" creator="VisuGPX - https://www.visugpx.com">
  <metadata>
    <name>j07 Queyras, Les Fonts de Cervières =&amp;gt; Souliers</name>
    <desc><![CDATA[Au départ des Fonts, montée au lac des Cordes, puis au col des Marsailles, descente au ravin des Chalmette, montée au col de Péas, descente et arrivée à Souliers.]]></desc>
  </metadata>
  <trk>
    <name><![CDATA[j07 Queyras, Les Fonts de Cervières =&gt; Souliers_1]]></name>
    <extensions>
      <line xmlns="http://www.topografix.com/GPX/gpx_style/0/2">
        <color>0000FF</color>
        <width>4</width>
      </line>
    </extensions>
    <trkseg>
      <trkpt lat="44.84462" lon="6.81603">
        <ele>2005.9</ele>
        <time>2021-07-10T05:31:19Z</time>
      </trkpt>
      <trkpt lat="44.84462" lon="6.81603">
        <ele>2005.9</ele>
        <time>2021-07-10T05:31:19Z</time>
      </trkpt>
      <trkpt lat="44.84463" lon="6.81573">
        <ele>2008.5</ele>
        <time>2021-07-10T05:31:49Z</time>
      </trkpt>
      <trkpt lat="44.84473" lon="6.81574">
        <ele>2010.2</ele>
        <time>2021-07-10T05:32:20Z</time>
      </trkpt>
      <trkpt lat="44.84464" lon="6.81572">
        <ele>2006.4</ele>
        <time>2021-07-10T05:33:16Z</time>
      </trkpt>
      <trkpt lat="44.84473" lon="6.81566">
        <ele>2003.4</ele>
        <time>2021-07-10T05:33:56Z</time>
      </trkpt>
      <trkpt lat="44.845" lon="6.81556">
        <ele>1999</ele>
        <time>2021-07-10T05:34:26Z</time>
      </trkpt>
      <trkpt lat="44.84511" lon="6.81511">
        <ele>1996.6</ele>
        <time>2021-07-10T05:34:57Z</time>
      </trkpt>
      <trkpt lat="44.84523" lon="6.81505">
        <ele>1991.2</ele>
        <time>2021-07-10T05:35:27Z</time>
      </trkpt>
      <trkpt lat="44.84532" lon="6.81499">
        <ele>1992.6</ele>
        <time>2021-07-10T05:36:03Z</time>
      </trkpt>
      <trkpt lat="44.84563" lon="6.81466">
        <ele>1995.5</ele>
        <time>2021-07-10T05:36:33Z</time>
      </trkpt>
      <trkpt lat="44.84572" lon="6.81414">
        <ele>2011</ele>
        <time>2021-07-10T05:37:04Z</time>
      </trkpt>
      <trkpt lat="44.84582" lon="6.81377">
        <ele>2008.3</ele>
        <time>2021-07-10T05:37:34Z</time>
      </trkpt>
      <trkpt lat="44.84587" lon="6.81335">
        <ele>1999.6</ele>
        <time>2021-07-10T05:38:05Z</time>
      </trkpt>
      <trkpt lat="44.846" lon="6.81303">
        <ele>1994.9</ele>
        <time>2021-07-10T05:38:36Z</time>
      </trkpt>
      <trkpt lat="44.84622" lon="6.81265">
        <ele>1990.3</ele>
        <time>2021-07-10T05:39:07Z</time>
      </trkpt>
      <trkpt lat="44.84644" lon="6.8124">
        <ele>1989.5</ele>
        <time>2021-07-10T05:39:38Z</time>
      </trkpt>
      <trkpt lat="44.84652" lon="6.81234">
        <ele>1984.1</ele>
        <time>2021-07-10T05:42:06Z</time>
      </trkpt>
      <trkpt lat="44.84682" lon="6.81201">
        <ele>1985.5</ele>
        <time>2021-07-10T05:42:36Z</time>
      </trkpt>
      <trkpt lat="44.84706" lon="6.81162">
        <ele>1986.4</ele>
        <time>2021-07-10T05:43:07Z</time>
      </trkpt>
      <trkpt lat="44.84716" lon="6.81121">
        <ele>1984.5</ele>
        <time>2021-07-10T05:43:37Z</time>
      </trkpt>
      <trkpt lat="44.84744" lon="6.81085">
        <ele>1977.8</ele>
        <time>2021-07-10T05:44:07Z</time>
      </trkpt>
      <trkpt lat="44.84776" lon="6.81065">
        <ele>1976.3</ele>
        <time>2021-07-10T05:44:38Z</time>
      </trkpt>
      <trkpt lat="44.84798" lon="6.81031">
        <ele>1978.1</ele>
        <time>2021-07-10T05:45:09Z</time>
      </trkpt>
      <trkpt lat="44.84818" lon="6.80991">
        <ele>1983.3</ele>
        <time>2021-07-10T05:45:39Z</time>
      </trkpt>
      <trkpt lat="44.84854" lon="6.80978">
        <ele>1982.6</ele>
        <time>2021-07-10T05:46:09Z</time>
      </trkpt>
      <trkpt lat="44.84881" lon="6.80948">
        <ele>1979.5</ele>
        <time>2021-07-10T05:46:39Z</time>
      </trkpt>
      <trkpt lat="44.84896" lon="6.80912">
        <ele>1981.3</ele>
        <time>2021-07-10T05:47:10Z</time>
      </trkpt>
      <trkpt lat="44.84921" lon="6.80876">
        <ele>1974.8</ele>
        <time>2021-07-10T05:47:40Z</time>
      </trkpt>
      <trkpt lat="44.84946" lon="6.80844">
        <ele>1975.3</ele>
        <time>2021-07-10T05:48:11Z</time>
      </trkpt>
      <trkpt lat="44.84969" lon="6.8081">
        <ele>1972.2</ele>
        <time>2021-07-10T05:48:41Z</time>
      </trkpt>
      <trkpt lat="44.84982" lon="6.80761">
        <ele>1971.3</ele>
        <time>2021-07-10T05:49:12Z</time>
      </trkpt>
      <trkpt lat="44.85014" lon="6.80736">
        <ele>1962.4</ele>
        <time>2021-07-10T05:49:43Z</time>
      </trkpt>
      <trkpt lat="44.85046" lon="6.80733">
        <ele>1957.1</ele>
        <time>2021-07-10T05:50:14Z</time>
      </trkpt>
      <trkpt lat="44.85075" lon="6.80714">
        <ele>1953.8</ele>
        <time>2021-07-10T05:50:44Z</time>
      </trkpt>
      <trkpt lat="44.85094" lon="6.80675">
        <ele>1951.8</ele>
        <time>2021-07-10T05:51:15Z</time>
      </trkpt>
      <trkpt lat="44.85109" lon="6.80636">
        <ele>1950.1</ele>
        <time>2021-07-10T05:51:46Z</time>
      </trkpt>
      <trkpt lat="44.85125" lon="6.8059">
        <ele>1946.8</ele>
        <time>2021-07-10T05:52:16Z</time>
      </trkpt>
      <trkpt lat="44.85137" lon="6.80547">
        <ele>1944.2</ele>
        <time>2021-07-10T05:52:47Z</time>
      </trkpt>
      <trkpt lat="44.85147" lon="6.80501">
        <ele>1946.6</ele>
        <time>2021-07-10T05:53:18Z</time>
      </trkpt>
      <trkpt lat="44.8516" lon="6.80466">
        <ele>1942.1</ele>
        <time>2021-07-10T05:53:49Z</time>
      </trkpt>
      <trkpt lat="44.85163" lon="6.80421">
        <ele>1944.5</ele>
        <time>2021-07-10T05:54:20Z</time>
      </trkpt>
      <trkpt lat="44.85186" lon="6.80389">
        <ele>1944.3</ele>
        <time>2021-07-10T05:54:50Z</time>
      </trkpt>
      <trkpt lat="44.85209" lon="6.80352">
        <ele>1942.9</ele>
        <time>2021-07-10T05:55:21Z</time>
      </trkpt>
      <trkpt lat="44.85226" lon="6.80316">
        <ele>1941.2</ele>
        <time>2021-07-10T05:55:52Z</time>
      </trkpt>
      <trkpt lat="44.85248" lon="6.80278">
        <ele>1938.7</ele>
        <time>2021-07-10T05:56:22Z</time>
      </trkpt>
      <trkpt lat="44.85271" lon="6.80248">
        <ele>1939.6</ele>
        <time>2021-07-10T05:56:53Z</time>
      </trkpt>
      <trkpt lat="44.85302" lon="6.80228">
        <ele>1935.2</ele>
        <time>2021-07-10T05:57:24Z</time>
      </trkpt>
      <trkpt lat="44.85321" lon="6.80198">
        <ele>1935.2</ele>
        <time>2021-07-10T05:57:55Z</time>
      </trkpt>
      <trkpt lat="44.85345" lon="6.80168">
        <ele>1927.3</ele>
        <time>2021-07-10T05:58:25Z</time>
      </trkpt>
      <trkpt lat="44.85372" lon="6.80132">
        <ele>1917.6</ele>
        <time>2021-07-10T05:58:56Z</time>
      </trkpt>
      <trkpt lat="44.85398" lon="6.80099">
        <ele>1920.8</ele>
        <time>2021-07-10T05:59:26Z</time>
      </trkpt>
      <trkpt lat="44.85423" lon="6.80061">
        <ele>1920.8</ele>
        <time>2021-07-10T05:59:57Z</time>
      </trkpt>
      <trkpt lat="44.85442" lon="6.8002">
        <ele>1920</ele>
        <time>2021-07-10T06:00:27Z</time>
      </trkpt>
      <trkpt lat="44.85465" lon="6.79986">
        <ele>1917.6</ele>
        <time>2021-07-10T06:00:57Z</time>
      </trkpt>
      <trkpt lat="44.85487" lon="6.79975">
        <ele>1920.7</ele>
        <time>2021-07-10T06:01:28Z</time>
      </trkpt>
      <trkpt lat="44.85484" lon="6.79962">
        <ele>1911.2</ele>
        <time>2021-07-10T06:05:57Z</time>
      </trkpt>
      <trkpt lat="44.85476" lon="6.79956">
        <ele>1908.7</ele>
        <time>2021-07-10T06:07:13Z</time>
      </trkpt>
      <trkpt lat="44.85457" lon="6.79946">
        <ele>1911.3</ele>
        <time>2021-07-10T06:07:43Z</time>
      </trkpt>
      <trkpt lat="44.8544" lon="6.79929">
        <ele>1915</ele>
        <time>2021-07-10T06:08:14Z</time>
      </trkpt>
      <trkpt lat="44.85428" lon="6.7992">
        <ele>1919.9</ele>
        <time>2021-07-10T06:08:44Z</time>
      </trkpt>
      <trkpt lat="44.85418" lon="6.79917">
        <ele>1921</ele>
        <time>2021-07-10T06:09:33Z</time>
      </trkpt>
      <trkpt lat="44.85408" lon="6.799">
        <ele>1922.5</ele>
        <time>2021-07-10T06:10:04Z</time>
      </trkpt>
      <trkpt lat="44.85412" lon="6.79888">
        <ele>1922.4</ele>
        <time>2021-07-10T06:10:36Z</time>
      </trkpt>
      <trkpt lat="44.85403" lon="6.79883">
        <ele>1927.7</ele>
        <time>2021-07-10T06:11:14Z</time>
      </trkpt>
      <trkpt lat="44.85385" lon="6.79889">
        <ele>1927.2</ele>
        <time>2021-07-10T06:11:44Z</time>
      </trkpt>
      <trkpt lat="44.85372" lon="6.79901">
        <ele>1927.8</ele>
        <time>2021-07-10T06:12:14Z</time>
      </trkpt>
      <trkpt lat="44.85356" lon="6.79916">
        <ele>1928.3</ele>
        <time>2021-07-10T06:12:45Z</time>
      </trkpt>
      <trkpt lat="44.85343" lon="6.79923">
        <ele>1927.1</ele>
        <time>2021-07-10T06:13:15Z</time>
      </trkpt>
      <trkpt lat="44.85329" lon="6.79935">
        <ele>1927.7</ele>
        <time>2021-07-10T06:13:47Z</time>
      </trkpt>
      <trkpt lat="44.85309" lon="6.79949">
        <ele>1929.5</ele>
        <time>2021-07-10T06:14:17Z</time>
      </trkpt>
      <trkpt lat="44.853" lon="6.7995">
        <ele>1931.1</ele>
        <time>2021-07-10T06:14:54Z</time>
      </trkpt>
      <trkpt lat="44.85282" lon="6.79947">
        <ele>1932.7</ele>
        <time>2021-07-10T06:15:25Z</time>
      </trkpt>
      <trkpt lat="44.85256" lon="6.79947">
        <ele>1932.1</ele>
        <time>2021-07-10T06:15:56Z</time>
      </trkpt>
      <trkpt lat="44.85247" lon="6.7995">
        <ele>1930.8</ele>
        <time>2021-07-10T06:16:27Z</time>
      </trkpt>
      <trkpt lat="44.85249" lon="6.79937">
        <ele>1928.9</ele>
        <time>2021-07-10T06:16:58Z</time>
      </trkpt>
      <trkpt lat="44.85256" lon="6.79925">
        <ele>1932.3</ele>
        <time>2021-07-10T06:17:28Z</time>
      </trkpt>
      <trkpt lat="44.85266" lon="6.79919">
        <ele>1935.8</ele>
        <time>2021-07-10T06:17:59Z</time>
      </trkpt>
      <trkpt lat="44.85271" lon="6.79901">
        <ele>1938.7</ele>
        <time>2021-07-10T06:18:30Z</time>
      </trkpt>
      <trkpt lat="44.85275" lon="6.79888">
        <ele>1940.9</ele>
        <time>2021-07-10T06:19:00Z</time>
      </trkpt>
      <trkpt lat="44.85274" lon="6.79871">
        <ele>1944</ele>
        <time>2021-07-10T06:19:30Z</time>
      </trkpt>
      <trkpt lat="44.85273" lon="6.79848">
        <ele>1946</ele>
        <time>2021-07-10T06:20:01Z</time>
      </trkpt>
      <trkpt lat="44.85278" lon="6.79828">
        <ele>1945.7</ele>
        <time>2021-07-10T06:20:32Z</time>
      </trkpt>
      <trkpt lat="44.8528" lon="6.79813">
        <ele>1948.4</ele>
        <time>2021-07-10T06:21:03Z</time>
      </trkpt>
      <trkpt lat="44.85268" lon="6.79828">
        <ele>1949.6</ele>
        <time>2021-07-10T06:21:34Z</time>
      </trkpt>
      <trkpt lat="44.85261" lon="6.79836">
        <ele>1948.1</ele>
        <time>2021-07-10T06:22:07Z</time>
      </trkpt>
      <trkpt lat="44.85244" lon="6.79842">
        <ele>1951.7</ele>
        <time>2021-07-10T06:22:38Z</time>
      </trkpt>
      <trkpt lat="44.85235" lon="6.79838">
        <ele>1951.4</ele>
        <time>2021-07-10T06:23:09Z</time>
      </trkpt>
      <trkpt lat="44.85235" lon="6.79822">
        <ele>1950.1</ele>
        <time>2021-07-10T06:23:39Z</time>
      </trkpt>
      <trkpt lat="44.8523" lon="6.79811">
        <ele>1953.7</ele>
        <time>2021-07-10T06:24:11Z</time>
      </trkpt>
      <trkpt lat="44.85234" lon="6.79799">
        <ele>1959.5</ele>
        <time>2021-07-10T06:24:45Z</time>
      </trkpt>
      <trkpt lat="44.85238" lon="6.79781">
        <ele>1959</ele>
        <time>2021-07-10T06:25:15Z</time>
      </trkpt>
      <trkpt lat="44.85232" lon="6.79791">
        <ele>1980.2</ele>
        <time>2021-07-10T06:26:45Z</time>
      </trkpt>
      <trkpt lat="44.85223" lon="6.79788">
        <ele>1980.3</ele>
        <time>2021-07-10T06:27:19Z</time>
      </trkpt>
      <trkpt lat="44.8522" lon="6.79775">
        <ele>1985.6</ele>
        <time>2021-07-10T06:28:18Z</time>
      </trkpt>
      <trkpt lat="44.85208" lon="6.79763">
        <ele>1977.2</ele>
        <time>2021-07-10T06:28:48Z</time>
      </trkpt>
      <trkpt lat="44.85201" lon="6.79755">
        <ele>1987.4</ele>
        <time>2021-07-10T06:29:21Z</time>
      </trkpt>
      <trkpt lat="44.852" lon="6.79737">
        <ele>1986.7</ele>
        <time>2021-07-10T06:29:51Z</time>
      </trkpt>
      <trkpt lat="44.85207" lon="6.79722">
        <ele>1987.7</ele>
        <time>2021-07-10T06:30:22Z</time>
      </trkpt>
      <trkpt lat="44.85213" lon="6.79712">
        <ele>1992.2</ele>
        <time>2021-07-10T06:31:49Z</time>
      </trkpt>
      <trkpt lat="44.85218" lon="6.79686">
        <ele>1996.3</ele>
        <time>2021-07-10T06:32:19Z</time>
      </trkpt>
      <trkpt lat="44.85224" lon="6.79676">
        <ele>1996.3</ele>
        <time>2021-07-10T06:32:50Z</time>
      </trkpt>
      <trkpt lat="44.85236" lon="6.79654">
        <ele>1994.9</ele>
        <time>2021-07-10T06:33:21Z</time>
      </trkpt>
      <trkpt lat="44.85239" lon="6.79634">
        <ele>1996.2</ele>
        <time>2021-07-10T06:33:51Z</time>
      </trkpt>
      <trkpt lat="44.85248" lon="6.79629">
        <ele>2002</ele>
        <time>2021-07-10T06:36:42Z</time>
      </trkpt>
      <trkpt lat="44.85253" lon="6.79618">
        <ele>2005.9</ele>
        <time>2021-07-10T06:39:15Z</time>
      </trkpt>
      <trkpt lat="44.85251" lon="6.79597">
        <ele>2006.5</ele>
        <time>2021-07-10T06:39:46Z</time>
      </trkpt>
      <trkpt lat="44.85266" lon="6.79568">
        <ele>2008.3</ele>
        <time>2021-07-10T06:40:17Z</time>
      </trkpt>
      <trkpt lat="44.85273" lon="6.7955">
        <ele>2009.8</ele>
        <time>2021-07-10T06:40:48Z</time>
      </trkpt>
      <trkpt lat="44.85283" lon="6.79541">
        <ele>2011.8</ele>
        <time>2021-07-10T06:41:19Z</time>
      </trkpt>
      <trkpt lat="44.85276" lon="6.79533">
        <ele>2013.6</ele>
        <time>2021-07-10T06:41:52Z</time>
      </trkpt>
      <trkpt lat="44.85268" lon="6.79522">
        <ele>2013.4</ele>
        <time>2021-07-10T06:42:23Z</time>
      </trkpt>
      <trkpt lat="44.85263" lon="6.79511">
        <ele>2014.4</ele>
        <time>2021-07-10T06:43:25Z</time>
      </trkpt>
      <trkpt lat="44.8526" lon="6.79498">
        <ele>2017.6</ele>
        <time>2021-07-10T06:45:03Z</time>
      </trkpt>
      <trkpt lat="44.85242" lon="6.795">
        <ele>2014.3</ele>
        <time>2021-07-10T06:45:34Z</time>
      </trkpt>
      <trkpt lat="44.8524" lon="6.79486">
        <ele>2019.8</ele>
        <time>2021-07-10T06:48:31Z</time>
      </trkpt>
      <trkpt lat="44.85232" lon="6.79478">
        <ele>2019.2</ele>
        <time>2021-07-10T06:49:01Z</time>
      </trkpt>
      <trkpt lat="44.85222" lon="6.79476">
        <ele>2026.6</ele>
        <time>2021-07-10T06:49:39Z</time>
      </trkpt>
      <trkpt lat="44.85219" lon="6.7949">
        <ele>2027.8</ele>
        <time>2021-07-10T06:50:09Z</time>
      </trkpt>
      <trkpt lat="44.85212" lon="6.79498">
        <ele>2033.1</ele>
        <time>2021-07-10T06:53:41Z</time>
      </trkpt>
      <trkpt lat="44.85211" lon="6.79485">
        <ele>2044.2</ele>
        <time>2021-07-10T06:54:41Z</time>
      </trkpt>
      <trkpt lat="44.85194" lon="6.79473">
        <ele>2049.9</ele>
        <time>2021-07-10T06:55:11Z</time>
      </trkpt>
      <trkpt lat="44.85179" lon="6.79465">
        <ele>2056</ele>
        <time>2021-07-10T06:55:41Z</time>
      </trkpt>
      <trkpt lat="44.85163" lon="6.79465">
        <ele>2061.5</ele>
        <time>2021-07-10T06:56:12Z</time>
      </trkpt>
      <trkpt lat="44.85143" lon="6.79476">
        <ele>2070.6</ele>
        <time>2021-07-10T06:56:42Z</time>
      </trkpt>
      <trkpt lat="44.8512" lon="6.79469">
        <ele>2082.2</ele>
        <time>2021-07-10T06:57:13Z</time>
      </trkpt>
      <trkpt lat="44.85107" lon="6.79468">
        <ele>2087.6</ele>
        <time>2021-07-10T06:57:43Z</time>
      </trkpt>
      <trkpt lat="44.85092" lon="6.79456">
        <ele>2088.7</ele>
        <time>2021-07-10T06:58:14Z</time>
      </trkpt>
      <trkpt lat="44.85065" lon="6.79458">
        <ele>2092.4</ele>
        <time>2021-07-10T06:58:44Z</time>
      </trkpt>
      <trkpt lat="44.85052" lon="6.79447">
        <ele>2097.3</ele>
        <time>2021-07-10T06:59:15Z</time>
      </trkpt>
      <trkpt lat="44.85034" lon="6.79416">
        <ele>2106.4</ele>
        <time>2021-07-10T06:59:45Z</time>
      </trkpt>
      <trkpt lat="44.85038" lon="6.79394">
        <ele>2118</ele>
        <time>2021-07-10T07:00:15Z</time>
      </trkpt>
      <trkpt lat="44.85025" lon="6.79383">
        <ele>2121.1</ele>
        <time>2021-07-10T07:00:45Z</time>
      </trkpt>
      <trkpt lat="44.85019" lon="6.79372">
        <ele>2126.6</ele>
        <time>2021-07-10T07:01:19Z</time>
      </trkpt>
      <trkpt lat="44.85019" lon="6.79355">
        <ele>2127.2</ele>
        <time>2021-07-10T07:01:50Z</time>
      </trkpt>
      <trkpt lat="44.85014" lon="6.79345">
        <ele>2131.7</ele>
        <time>2021-07-10T07:02:40Z</time>
      </trkpt>
      <trkpt lat="44.85004" lon="6.79341">
        <ele>2129.6</ele>
        <time>2021-07-10T07:03:21Z</time>
      </trkpt>
      <trkpt lat="44.84991" lon="6.7933">
        <ele>2135.1</ele>
        <time>2021-07-10T07:03:52Z</time>
      </trkpt>
      <trkpt lat="44.84982" lon="6.79304">
        <ele>2140.8</ele>
        <time>2021-07-10T07:04:22Z</time>
      </trkpt>
      <trkpt lat="44.84973" lon="6.793">
        <ele>2142.7</ele>
        <time>2021-07-10T07:04:56Z</time>
      </trkpt>
      <trkpt lat="44.84956" lon="6.79292">
        <ele>2152</ele>
        <time>2021-07-10T07:05:27Z</time>
      </trkpt>
      <trkpt lat="44.84939" lon="6.79278">
        <ele>2170</ele>
        <time>2021-07-10T07:05:57Z</time>
      </trkpt>
      <trkpt lat="44.84922" lon="6.79268">
        <ele>2180.8</ele>
        <time>2021-07-10T07:06:28Z</time>
      </trkpt>
      <trkpt lat="44.84914" lon="6.79262">
        <ele>2185.5</ele>
        <time>2021-07-10T07:07:04Z</time>
      </trkpt>
      <trkpt lat="44.84909" lon="6.79248">
        <ele>2189.2</ele>
        <time>2021-07-10T07:07:34Z</time>
      </trkpt>
      <trkpt lat="44.84897" lon="6.79242">
        <ele>2197.6</ele>
        <time>2021-07-10T07:08:05Z</time>
      </trkpt>
      <trkpt lat="44.84883" lon="6.79231">
        <ele>2200.5</ele>
        <time>2021-07-10T07:08:35Z</time>
      </trkpt>
      <trkpt lat="44.84874" lon="6.79225">
        <ele>2212.4</ele>
        <time>2021-07-10T07:09:06Z</time>
      </trkpt>
      <trkpt lat="44.84864" lon="6.79221">
        <ele>2211.8</ele>
        <time>2021-07-10T07:09:36Z</time>
      </trkpt>
      <trkpt lat="44.84855" lon="6.79222">
        <ele>2213.4</ele>
        <time>2021-07-10T07:10:07Z</time>
      </trkpt>
      <trkpt lat="44.84861" lon="6.79231">
        <ele>2223.1</ele>
        <time>2021-07-10T07:10:54Z</time>
      </trkpt>
      <trkpt lat="44.84862" lon="6.79253">
        <ele>2236</ele>
        <time>2021-07-10T07:11:24Z</time>
      </trkpt>
      <trkpt lat="44.84856" lon="6.79288">
        <ele>2250.1</ele>
        <time>2021-07-10T07:11:55Z</time>
      </trkpt>
      <trkpt lat="44.84842" lon="6.7931">
        <ele>2262.3</ele>
        <time>2021-07-10T07:12:26Z</time>
      </trkpt>
      <trkpt lat="44.84834" lon="6.79331">
        <ele>2273.4</ele>
        <time>2021-07-10T07:12:57Z</time>
      </trkpt>
      <trkpt lat="44.84819" lon="6.79346">
        <ele>2275</ele>
        <time>2021-07-10T07:13:28Z</time>
      </trkpt>
      <trkpt lat="44.84803" lon="6.79357">
        <ele>2276</ele>
        <time>2021-07-10T07:13:58Z</time>
      </trkpt>
      <trkpt lat="44.84796" lon="6.79348">
        <ele>2281.5</ele>
        <time>2021-07-10T07:14:35Z</time>
      </trkpt>
      <trkpt lat="44.84791" lon="6.79327">
        <ele>2288.5</ele>
        <time>2021-07-10T07:15:06Z</time>
      </trkpt>
      <trkpt lat="44.84787" lon="6.79315">
        <ele>2292.2</ele>
        <time>2021-07-10T07:15:36Z</time>
      </trkpt>
      <trkpt lat="44.84778" lon="6.79297">
        <ele>2297.3</ele>
        <time>2021-07-10T07:16:07Z</time>
      </trkpt>
      <trkpt lat="44.8477" lon="6.7928">
        <ele>2303.7</ele>
        <time>2021-07-10T07:16:38Z</time>
      </trkpt>
      <trkpt lat="44.84761" lon="6.7928">
        <ele>2308.2</ele>
        <time>2021-07-10T07:17:24Z</time>
      </trkpt>
      <trkpt lat="44.84744" lon="6.79274">
        <ele>2304.6</ele>
        <time>2021-07-10T07:17:55Z</time>
      </trkpt>
      <trkpt lat="44.84731" lon="6.79267">
        <ele>2308.2</ele>
        <time>2021-07-10T07:18:26Z</time>
      </trkpt>
      <trkpt lat="44.8473" lon="6.79281">
        <ele>2314.2</ele>
        <time>2021-07-10T07:18:58Z</time>
      </trkpt>
      <trkpt lat="44.8474" lon="6.79306">
        <ele>2316.6</ele>
        <time>2021-07-10T07:19:28Z</time>
      </trkpt>
      <trkpt lat="44.8473" lon="6.79318">
        <ele>2322.2</ele>
        <time>2021-07-10T07:19:59Z</time>
      </trkpt>
      <trkpt lat="44.8472" lon="6.79305">
        <ele>2326.9</ele>
        <time>2021-07-10T07:20:30Z</time>
      </trkpt>
      <trkpt lat="44.84708" lon="6.79299">
        <ele>2330.7</ele>
        <time>2021-07-10T07:21:00Z</time>
      </trkpt>
      <trkpt lat="44.84696" lon="6.79306">
        <ele>2332.9</ele>
        <time>2021-07-10T07:21:31Z</time>
      </trkpt>
      <trkpt lat="44.84689" lon="6.79314">
        <ele>2335.5</ele>
        <time>2021-07-10T07:22:03Z</time>
      </trkpt>
      <trkpt lat="44.8468" lon="6.79318">
        <ele>2335.4</ele>
        <time>2021-07-10T07:23:15Z</time>
      </trkpt>
      <trkpt lat="44.84672" lon="6.79311">
        <ele>2348.4</ele>
        <time>2021-07-10T07:53:27Z</time>
      </trkpt>
      <trkpt lat="44.84658" lon="6.79309">
        <ele>2350</ele>
        <time>2021-07-10T07:53:58Z</time>
      </trkpt>
      <trkpt lat="44.84648" lon="6.79312">
        <ele>2352.9</ele>
        <time>2021-07-10T07:54:32Z</time>
      </trkpt>
      <trkpt lat="44.84642" lon="6.79299">
        <ele>2350.6</ele>
        <time>2021-07-10T07:55:02Z</time>
      </trkpt>
      <trkpt lat="44.84638" lon="6.79287">
        <ele>2350.7</ele>
        <time>2021-07-10T07:55:45Z</time>
      </trkpt>
      <trkpt lat="44.84635" lon="6.79275">
        <ele>2353.1</ele>
        <time>2021-07-10T07:56:15Z</time>
      </trkpt>
      <trkpt lat="44.84628" lon="6.79265">
        <ele>2354.7</ele>
        <time>2021-07-10T07:56:46Z</time>
      </trkpt>
      <trkpt lat="44.84627" lon="6.79243">
        <ele>2358.6</ele>
        <time>2021-07-10T07:57:17Z</time>
      </trkpt>
      <trkpt lat="44.84624" lon="6.79228">
        <ele>2363.4</ele>
        <time>2021-07-10T07:57:47Z</time>
      </trkpt>
      <trkpt lat="44.84638" lon="6.79222">
        <ele>2371.1</ele>
        <time>2021-07-10T07:58:18Z</time>
      </trkpt>
      <trkpt lat="44.84635" lon="6.792">
        <ele>2376.3</ele>
        <time>2021-07-10T07:58:48Z</time>
      </trkpt>
      <trkpt lat="44.84622" lon="6.79193">
        <ele>2380.6</ele>
        <time>2021-07-10T07:59:19Z</time>
      </trkpt>
      <trkpt lat="44.84636" lon="6.79183">
        <ele>2384.9</ele>
        <time>2021-07-10T07:59:49Z</time>
      </trkpt>
      <trkpt lat="44.84643" lon="6.79168">
        <ele>2390.5</ele>
        <time>2021-07-10T08:00:20Z</time>
      </trkpt>
      <trkpt lat="44.84636" lon="6.79146">
        <ele>2393.7</ele>
        <time>2021-07-10T08:00:50Z</time>
      </trkpt>
      <trkpt lat="44.84622" lon="6.79132">
        <ele>2399.1</ele>
        <time>2021-07-10T08:01:21Z</time>
      </trkpt>
      <trkpt lat="44.8461" lon="6.79111">
        <ele>2399.5</ele>
        <time>2021-07-10T08:01:52Z</time>
      </trkpt>
      <trkpt lat="44.84594" lon="6.79089">
        <ele>2404.2</ele>
        <time>2021-07-10T08:02:23Z</time>
      </trkpt>
      <trkpt lat="44.84575" lon="6.79084">
        <ele>2403.4</ele>
        <time>2021-07-10T08:02:55Z</time>
      </trkpt>
      <trkpt lat="44.84563" lon="6.79068">
        <ele>2400.9</ele>
        <time>2021-07-10T08:03:25Z</time>
      </trkpt>
      <trkpt lat="44.84557" lon="6.79058">
        <ele>2400</ele>
        <time>2021-07-10T08:04:15Z</time>
      </trkpt>
      <trkpt lat="44.84536" lon="6.79041">
        <ele>2399.6</ele>
        <time>2021-07-10T08:04:46Z</time>
      </trkpt>
      <trkpt lat="44.84517" lon="6.79029">
        <ele>2398.6</ele>
        <time>2021-07-10T08:05:17Z</time>
      </trkpt>
      <trkpt lat="44.84504" lon="6.79019">
        <ele>2397.2</ele>
        <time>2021-07-10T08:05:48Z</time>
      </trkpt>
      <trkpt lat="44.84499" lon="6.79002">
        <ele>2400.7</ele>
        <time>2021-07-10T08:06:19Z</time>
      </trkpt>
      <trkpt lat="44.84508" lon="6.78981">
        <ele>2399.7</ele>
        <time>2021-07-10T08:06:50Z</time>
      </trkpt>
      <trkpt lat="44.84499" lon="6.78981">
        <ele>2401.1</ele>
        <time>2021-07-10T08:09:03Z</time>
      </trkpt>
      <trkpt lat="44.84473" lon="6.78982">
        <ele>2400.2</ele>
        <time>2021-07-10T08:09:33Z</time>
      </trkpt>
      <trkpt lat="44.84448" lon="6.78985">
        <ele>2402.4</ele>
        <time>2021-07-10T08:10:03Z</time>
      </trkpt>
      <trkpt lat="44.84439" lon="6.7899">
        <ele>2403.3</ele>
        <time>2021-07-10T08:11:01Z</time>
      </trkpt>
      <trkpt lat="44.84418" lon="6.79014">
        <ele>2406.1</ele>
        <time>2021-07-10T08:11:32Z</time>
      </trkpt>
      <trkpt lat="44.84394" lon="6.7903">
        <ele>2408.7</ele>
        <time>2021-07-10T08:12:03Z</time>
      </trkpt>
      <trkpt lat="44.84373" lon="6.7903">
        <ele>2409</ele>
        <time>2021-07-10T08:12:34Z</time>
      </trkpt>
      <trkpt lat="44.84363" lon="6.79031">
        <ele>2408.5</ele>
        <time>2021-07-10T08:13:53Z</time>
      </trkpt>
      <trkpt lat="44.84337" lon="6.79038">
        <ele>2408.5</ele>
        <time>2021-07-10T08:14:23Z</time>
      </trkpt>
      <trkpt lat="44.84313" lon="6.79043">
        <ele>2409.4</ele>
        <time>2021-07-10T08:14:54Z</time>
      </trkpt>
      <trkpt lat="44.84293" lon="6.79035">
        <ele>2411.9</ele>
        <time>2021-07-10T08:15:24Z</time>
      </trkpt>
      <trkpt lat="44.84287" lon="6.79061">
        <ele>2415.7</ele>
        <time>2021-07-10T08:15:55Z</time>
      </trkpt>
      <trkpt lat="44.84277" lon="6.79078">
        <ele>2418.4</ele>
        <time>2021-07-10T08:16:25Z</time>
      </trkpt>
      <trkpt lat="44.84263" lon="6.79098">
        <ele>2424.4</ele>
        <time>2021-07-10T08:16:56Z</time>
      </trkpt>
      <trkpt lat="44.84253" lon="6.79117">
        <ele>2426.8</ele>
        <time>2021-07-10T08:17:26Z</time>
      </trkpt>
      <trkpt lat="44.84239" lon="6.79134">
        <ele>2431</ele>
        <time>2021-07-10T08:17:56Z</time>
      </trkpt>
      <trkpt lat="44.84235" lon="6.79148">
        <ele>2432.4</ele>
        <time>2021-07-10T08:18:27Z</time>
      </trkpt>
      <trkpt lat="44.8422" lon="6.79166">
        <ele>2434.9</ele>
        <time>2021-07-10T08:18:58Z</time>
      </trkpt>
      <trkpt lat="44.84208" lon="6.79179">
        <ele>2440.4</ele>
        <time>2021-07-10T08:19:28Z</time>
      </trkpt>
      <trkpt lat="44.84194" lon="6.79196">
        <ele>2447</ele>
        <time>2021-07-10T08:19:58Z</time>
      </trkpt>
      <trkpt lat="44.84182" lon="6.79205">
        <ele>2450.7</ele>
        <time>2021-07-10T08:20:29Z</time>
      </trkpt>
      <trkpt lat="44.84174" lon="6.79213">
        <ele>2454.6</ele>
        <time>2021-07-10T08:20:59Z</time>
      </trkpt>
      <trkpt lat="44.84167" lon="6.79225">
        <ele>2456.7</ele>
        <time>2021-07-10T08:21:39Z</time>
      </trkpt>
      <trkpt lat="44.84159" lon="6.79237">
        <ele>2458.3</ele>
        <time>2021-07-10T08:22:09Z</time>
      </trkpt>
      <trkpt lat="44.84151" lon="6.79245">
        <ele>2461.8</ele>
        <time>2021-07-10T08:22:45Z</time>
      </trkpt>
      <trkpt lat="44.84143" lon="6.7926">
        <ele>2466.8</ele>
        <time>2021-07-10T08:23:17Z</time>
      </trkpt>
      <trkpt lat="44.84141" lon="6.79281">
        <ele>2472.4</ele>
        <time>2021-07-10T08:23:47Z</time>
      </trkpt>
      <trkpt lat="44.84137" lon="6.79292">
        <ele>2476.1</ele>
        <time>2021-07-10T08:24:18Z</time>
      </trkpt>
      <trkpt lat="44.84122" lon="6.79295">
        <ele>2479.4</ele>
        <time>2021-07-10T08:24:48Z</time>
      </trkpt>
      <trkpt lat="44.84107" lon="6.79286">
        <ele>2485.2</ele>
        <time>2021-07-10T08:25:19Z</time>
      </trkpt>
      <trkpt lat="44.84094" lon="6.79278">
        <ele>2493.3</ele>
        <time>2021-07-10T08:25:50Z</time>
      </trkpt>
      <trkpt lat="44.84087" lon="6.79269">
        <ele>2496.2</ele>
        <time>2021-07-10T08:26:24Z</time>
      </trkpt>
      <trkpt lat="44.84074" lon="6.79261">
        <ele>2494.9</ele>
        <time>2021-07-10T08:26:55Z</time>
      </trkpt>
      <trkpt lat="44.84065" lon="6.79264">
        <ele>2501.6</ele>
        <time>2021-07-10T08:28:25Z</time>
      </trkpt>
      <trkpt lat="44.84048" lon="6.79265">
        <ele>2502.4</ele>
        <time>2021-07-10T08:28:55Z</time>
      </trkpt>
      <trkpt lat="44.84039" lon="6.79275">
        <ele>2504.3</ele>
        <time>2021-07-10T08:29:25Z</time>
      </trkpt>
      <trkpt lat="44.84035" lon="6.79294">
        <ele>2506.3</ele>
        <time>2021-07-10T08:29:56Z</time>
      </trkpt>
      <trkpt lat="44.84011" lon="6.79321">
        <ele>2511.4</ele>
        <time>2021-07-10T08:30:27Z</time>
      </trkpt>
      <trkpt lat="44.83982" lon="6.79325">
        <ele>2515.6</ele>
        <time>2021-07-10T08:30:58Z</time>
      </trkpt>
      <trkpt lat="44.83957" lon="6.79312">
        <ele>2517</ele>
        <time>2021-07-10T08:31:28Z</time>
      </trkpt>
      <trkpt lat="44.83936" lon="6.79316">
        <ele>2520.6</ele>
        <time>2021-07-10T08:31:58Z</time>
      </trkpt>
      <trkpt lat="44.83916" lon="6.79311">
        <ele>2523.9</ele>
        <time>2021-07-10T08:32:28Z</time>
      </trkpt>
      <trkpt lat="44.83895" lon="6.79303">
        <ele>2529.8</ele>
        <time>2021-07-10T08:32:59Z</time>
      </trkpt>
      <trkpt lat="44.83878" lon="6.79295">
        <ele>2532.8</ele>
        <time>2021-07-10T08:33:30Z</time>
      </trkpt>
      <trkpt lat="44.83866" lon="6.79288">
        <ele>2537.4</ele>
        <time>2021-07-10T08:34:00Z</time>
      </trkpt>
      <trkpt lat="44.8385" lon="6.79285">
        <ele>2542.3</ele>
        <time>2021-07-10T08:34:30Z</time>
      </trkpt>
      <trkpt lat="44.83838" lon="6.79294">
        <ele>2548.9</ele>
        <time>2021-07-10T08:35:01Z</time>
      </trkpt>
      <trkpt lat="44.83825" lon="6.7931">
        <ele>2555.6</ele>
        <time>2021-07-10T08:35:32Z</time>
      </trkpt>
      <trkpt lat="44.8382" lon="6.79299">
        <ele>2558.8</ele>
        <time>2021-07-10T08:50:59Z</time>
      </trkpt>
      <trkpt lat="44.83796" lon="6.79276">
        <ele>2556.8</ele>
        <time>2021-07-10T08:51:29Z</time>
      </trkpt>
      <trkpt lat="44.83775" lon="6.79274">
        <ele>2552.8</ele>
        <time>2021-07-10T08:51:59Z</time>
      </trkpt>
      <trkpt lat="44.83752" lon="6.79258">
        <ele>2547.8</ele>
        <time>2021-07-10T08:52:30Z</time>
      </trkpt>
      <trkpt lat="44.83728" lon="6.79254">
        <ele>2540.8</ele>
        <time>2021-07-10T08:53:01Z</time>
      </trkpt>
      <trkpt lat="44.83736" lon="6.79249">
        <ele>2540.6</ele>
        <time>2021-07-10T08:55:22Z</time>
      </trkpt>
      <trkpt lat="44.83727" lon="6.79257">
        <ele>2540.3</ele>
        <time>2021-07-10T08:55:58Z</time>
      </trkpt>
      <trkpt lat="44.83694" lon="6.79277">
        <ele>2536</ele>
        <time>2021-07-10T08:56:29Z</time>
      </trkpt>
      <trkpt lat="44.83685" lon="6.79279">
        <ele>2535.2</ele>
        <time>2021-07-10T08:57:03Z</time>
      </trkpt>
      <trkpt lat="44.83656" lon="6.79287">
        <ele>2528.3</ele>
        <time>2021-07-10T08:57:34Z</time>
      </trkpt>
      <trkpt lat="44.83629" lon="6.79294">
        <ele>2522.2</ele>
        <time>2021-07-10T08:58:04Z</time>
      </trkpt>
      <trkpt lat="44.83602" lon="6.79306">
        <ele>2516.2</ele>
        <time>2021-07-10T08:58:35Z</time>
      </trkpt>
      <trkpt lat="44.83567" lon="6.79314">
        <ele>2508.7</ele>
        <time>2021-07-10T08:59:06Z</time>
      </trkpt>
      <trkpt lat="44.8354" lon="6.79328">
        <ele>2504.8</ele>
        <time>2021-07-10T08:59:38Z</time>
      </trkpt>
      <trkpt lat="44.83523" lon="6.79349">
        <ele>2498.5</ele>
        <time>2021-07-10T09:00:08Z</time>
      </trkpt>
      <trkpt lat="44.83506" lon="6.7937">
        <ele>2491.9</ele>
        <time>2021-07-10T09:00:39Z</time>
      </trkpt>
      <trkpt lat="44.83487" lon="6.79404">
        <ele>2486</ele>
        <time>2021-07-10T09:01:10Z</time>
      </trkpt>
      <trkpt lat="44.83477" lon="6.79437">
        <ele>2479.5</ele>
        <time>2021-07-10T09:01:40Z</time>
      </trkpt>
      <trkpt lat="44.83463" lon="6.79475">
        <ele>2470.8</ele>
        <time>2021-07-10T09:02:11Z</time>
      </trkpt>
      <trkpt lat="44.83437" lon="6.79504">
        <ele>2465.4</ele>
        <time>2021-07-10T09:02:41Z</time>
      </trkpt>
      <trkpt lat="44.83409" lon="6.79515">
        <ele>2461.2</ele>
        <time>2021-07-10T09:03:11Z</time>
      </trkpt>
      <trkpt lat="44.83383" lon="6.79535">
        <ele>2458.2</ele>
        <time>2021-07-10T09:03:42Z</time>
      </trkpt>
      <trkpt lat="44.83382" lon="6.79568">
        <ele>2455.3</ele>
        <time>2021-07-10T09:04:12Z</time>
      </trkpt>
      <trkpt lat="44.83378" lon="6.79579">
        <ele>2457.2</ele>
        <time>2021-07-10T09:12:39Z</time>
      </trkpt>
      <trkpt lat="44.83379" lon="6.79611">
        <ele>2453.9</ele>
        <time>2021-07-10T09:13:10Z</time>
      </trkpt>
      <trkpt lat="44.83392" lon="6.79647">
        <ele>2448.8</ele>
        <time>2021-07-10T09:13:41Z</time>
      </trkpt>
      <trkpt lat="44.83401" lon="6.79682">
        <ele>2442.3</ele>
        <time>2021-07-10T09:14:12Z</time>
      </trkpt>
      <trkpt lat="44.83412" lon="6.79709">
        <ele>2436.4</ele>
        <time>2021-07-10T09:14:42Z</time>
      </trkpt>
      <trkpt lat="44.83413" lon="6.79739">
        <ele>2430.4</ele>
        <time>2021-07-10T09:15:13Z</time>
      </trkpt>
      <trkpt lat="44.83414" lon="6.79773">
        <ele>2421.7</ele>
        <time>2021-07-10T09:15:43Z</time>
      </trkpt>
      <trkpt lat="44.83399" lon="6.79798">
        <ele>2414.5</ele>
        <time>2021-07-10T09:16:14Z</time>
      </trkpt>
      <trkpt lat="44.83392" lon="6.79819">
        <ele>2406.3</ele>
        <time>2021-07-10T09:16:44Z</time>
      </trkpt>
      <trkpt lat="44.83396" lon="6.79859">
        <ele>2399</ele>
        <time>2021-07-10T09:17:15Z</time>
      </trkpt>
      <trkpt lat="44.83399" lon="6.79912">
        <ele>2396</ele>
        <time>2021-07-10T09:17:45Z</time>
      </trkpt>
      <trkpt lat="44.83412" lon="6.79966">
        <ele>2392.3</ele>
        <time>2021-07-10T09:18:16Z</time>
      </trkpt>
      <trkpt lat="44.83422" lon="6.80016">
        <ele>2387.5</ele>
        <time>2021-07-10T09:18:46Z</time>
      </trkpt>
      <trkpt lat="44.8343" lon="6.80072">
        <ele>2386.6</ele>
        <time>2021-07-10T09:19:17Z</time>
      </trkpt>
      <trkpt lat="44.83438" lon="6.80123">
        <ele>2382.7</ele>
        <time>2021-07-10T09:19:48Z</time>
      </trkpt>
      <trkpt lat="44.83434" lon="6.80153">
        <ele>2383</ele>
        <time>2021-07-10T09:20:18Z</time>
      </trkpt>
      <trkpt lat="44.83442" lon="6.80193">
        <ele>2378</ele>
        <time>2021-07-10T09:20:49Z</time>
      </trkpt>
      <trkpt lat="44.83461" lon="6.80228">
        <ele>2375.1</ele>
        <time>2021-07-10T09:21:19Z</time>
      </trkpt>
      <trkpt lat="44.83473" lon="6.80251">
        <ele>2372.5</ele>
        <time>2021-07-10T09:21:50Z</time>
      </trkpt>
      <trkpt lat="44.83486" lon="6.80282">
        <ele>2365.1</ele>
        <time>2021-07-10T09:22:20Z</time>
      </trkpt>
      <trkpt lat="44.83476" lon="6.80319">
        <ele>2359.3</ele>
        <time>2021-07-10T09:22:51Z</time>
      </trkpt>
      <trkpt lat="44.83474" lon="6.80343">
        <ele>2354.5</ele>
        <time>2021-07-10T09:23:23Z</time>
      </trkpt>
      <trkpt lat="44.83471" lon="6.80367">
        <ele>2348.6</ele>
        <time>2021-07-10T09:23:53Z</time>
      </trkpt>
      <trkpt lat="44.83484" lon="6.80382">
        <ele>2344.6</ele>
        <time>2021-07-10T09:24:24Z</time>
      </trkpt>
      <trkpt lat="44.83479" lon="6.80423">
        <ele>2335.9</ele>
        <time>2021-07-10T09:24:54Z</time>
      </trkpt>
      <trkpt lat="44.83474" lon="6.80465">
        <ele>2328.4</ele>
        <time>2021-07-10T09:25:24Z</time>
      </trkpt>
      <trkpt lat="44.83471" lon="6.80502">
        <ele>2323.3</ele>
        <time>2021-07-10T09:25:55Z</time>
      </trkpt>
      <trkpt lat="44.8347" lon="6.80532">
        <ele>2314.2</ele>
        <time>2021-07-10T09:26:25Z</time>
      </trkpt>
      <trkpt lat="44.83469" lon="6.80557">
        <ele>2305.7</ele>
        <time>2021-07-10T09:26:55Z</time>
      </trkpt>
      <trkpt lat="44.83458" lon="6.80572">
        <ele>2298.7</ele>
        <time>2021-07-10T09:27:25Z</time>
      </trkpt>
      <trkpt lat="44.83459" lon="6.80585">
        <ele>2296.9</ele>
        <time>2021-07-10T09:29:03Z</time>
      </trkpt>
      <trkpt lat="44.8345" lon="6.80626">
        <ele>2288.7</ele>
        <time>2021-07-10T09:29:34Z</time>
      </trkpt>
      <trkpt lat="44.83453" lon="6.80661">
        <ele>2282.4</ele>
        <time>2021-07-10T09:30:05Z</time>
      </trkpt>
      <trkpt lat="44.83457" lon="6.80703">
        <ele>2277</ele>
        <time>2021-07-10T09:30:35Z</time>
      </trkpt>
      <trkpt lat="44.83442" lon="6.80751">
        <ele>2276.2</ele>
        <time>2021-07-10T09:31:06Z</time>
      </trkpt>
      <trkpt lat="44.8344" lon="6.80782">
        <ele>2275.2</ele>
        <time>2021-07-10T09:31:37Z</time>
      </trkpt>
      <trkpt lat="44.83441" lon="6.80816">
        <ele>2271.4</ele>
        <time>2021-07-10T09:32:09Z</time>
      </trkpt>
      <trkpt lat="44.83442" lon="6.80852">
        <ele>2260.8</ele>
        <time>2021-07-10T09:32:39Z</time>
      </trkpt>
      <trkpt lat="44.83444" lon="6.80894">
        <ele>2252.4</ele>
        <time>2021-07-10T09:33:10Z</time>
      </trkpt>
      <trkpt lat="44.83429" lon="6.80922">
        <ele>2245.7</ele>
        <time>2021-07-10T09:33:40Z</time>
      </trkpt>
      <trkpt lat="44.83402" lon="6.80909">
        <ele>2240</ele>
        <time>2021-07-10T09:34:11Z</time>
      </trkpt>
      <trkpt lat="44.83384" lon="6.80895">
        <ele>2232.5</ele>
        <time>2021-07-10T09:34:42Z</time>
      </trkpt>
      <trkpt lat="44.83375" lon="6.80865">
        <ele>2223.8</ele>
        <time>2021-07-10T09:35:13Z</time>
      </trkpt>
      <trkpt lat="44.83345" lon="6.80868">
        <ele>2218.5</ele>
        <time>2021-07-10T09:35:43Z</time>
      </trkpt>
      <trkpt lat="44.83313" lon="6.8086">
        <ele>2213.9</ele>
        <time>2021-07-10T09:36:13Z</time>
      </trkpt>
      <trkpt lat="44.83286" lon="6.8087">
        <ele>2211</ele>
        <time>2021-07-10T09:36:44Z</time>
      </trkpt>
      <trkpt lat="44.83255" lon="6.80867">
        <ele>2206.9</ele>
        <time>2021-07-10T09:37:15Z</time>
      </trkpt>
      <trkpt lat="44.83228" lon="6.8086">
        <ele>2203.7</ele>
        <time>2021-07-10T09:37:46Z</time>
      </trkpt>
      <trkpt lat="44.83202" lon="6.80855">
        <ele>2201.1</ele>
        <time>2021-07-10T09:38:16Z</time>
      </trkpt>
      <trkpt lat="44.8317" lon="6.80852">
        <ele>2196.3</ele>
        <time>2021-07-10T09:38:47Z</time>
      </trkpt>
      <trkpt lat="44.83144" lon="6.80856">
        <ele>2191.4</ele>
        <time>2021-07-10T09:39:18Z</time>
      </trkpt>
      <trkpt lat="44.83131" lon="6.80865">
        <ele>2189.9</ele>
        <time>2021-07-10T09:39:48Z</time>
      </trkpt>
      <trkpt lat="44.83122" lon="6.80872">
        <ele>2189.7</ele>
        <time>2021-07-10T09:40:38Z</time>
      </trkpt>
      <trkpt lat="44.83103" lon="6.80896">
        <ele>2194.6</ele>
        <time>2021-07-10T09:41:09Z</time>
      </trkpt>
      <trkpt lat="44.83089" lon="6.80906">
        <ele>2195.4</ele>
        <time>2021-07-10T09:41:40Z</time>
      </trkpt>
      <trkpt lat="44.83068" lon="6.80923">
        <ele>2194.7</ele>
        <time>2021-07-10T09:42:12Z</time>
      </trkpt>
      <trkpt lat="44.83042" lon="6.8094">
        <ele>2197.4</ele>
        <time>2021-07-10T09:42:42Z</time>
      </trkpt>
      <trkpt lat="44.83022" lon="6.80945">
        <ele>2197.3</ele>
        <time>2021-07-10T09:43:12Z</time>
      </trkpt>
      <trkpt lat="44.83012" lon="6.80947">
        <ele>2197.4</ele>
        <time>2021-07-10T09:44:31Z</time>
      </trkpt>
      <trkpt lat="44.82993" lon="6.80948">
        <ele>2196.4</ele>
        <time>2021-07-10T09:45:02Z</time>
      </trkpt>
      <trkpt lat="44.82973" lon="6.80963">
        <ele>2197.9</ele>
        <time>2021-07-10T09:45:33Z</time>
      </trkpt>
      <trkpt lat="44.82959" lon="6.80977">
        <ele>2201.2</ele>
        <time>2021-07-10T09:46:05Z</time>
      </trkpt>
      <trkpt lat="44.82963" lon="6.80989">
        <ele>2203.9</ele>
        <time>2021-07-10T09:54:45Z</time>
      </trkpt>
      <trkpt lat="44.82948" lon="6.80989">
        <ele>2203.4</ele>
        <time>2021-07-10T09:55:15Z</time>
      </trkpt>
      <trkpt lat="44.82946" lon="6.80969">
        <ele>2201.8</ele>
        <time>2021-07-10T09:55:45Z</time>
      </trkpt>
      <trkpt lat="44.82955" lon="6.80977">
        <ele>2201.7</ele>
        <time>2021-07-10T09:56:15Z</time>
      </trkpt>
      <trkpt lat="44.82948" lon="6.80987">
        <ele>2203.5</ele>
        <time>2021-07-10T09:57:02Z</time>
      </trkpt>
      <trkpt lat="44.82939" lon="6.81011">
        <ele>2205.1</ele>
        <time>2021-07-10T09:57:33Z</time>
      </trkpt>
      <trkpt lat="44.82922" lon="6.81025">
        <ele>2206.5</ele>
        <time>2021-07-10T09:58:04Z</time>
      </trkpt>
      <trkpt lat="44.82897" lon="6.81018">
        <ele>2206.8</ele>
        <time>2021-07-10T09:58:35Z</time>
      </trkpt>
      <trkpt lat="44.82884" lon="6.81017">
        <ele>2208.2</ele>
        <time>2021-07-10T09:59:06Z</time>
      </trkpt>
      <trkpt lat="44.82866" lon="6.81003">
        <ele>2213.1</ele>
        <time>2021-07-10T09:59:36Z</time>
      </trkpt>
      <trkpt lat="44.82854" lon="6.8098">
        <ele>2216.7</ele>
        <time>2021-07-10T10:00:07Z</time>
      </trkpt>
      <trkpt lat="44.82845" lon="6.8096">
        <ele>2220.3</ele>
        <time>2021-07-10T10:00:38Z</time>
      </trkpt>
      <trkpt lat="44.82838" lon="6.8095">
        <ele>2221.1</ele>
        <time>2021-07-10T10:02:25Z</time>
      </trkpt>
      <trkpt lat="44.82823" lon="6.8093">
        <ele>2221.2</ele>
        <time>2021-07-10T10:02:56Z</time>
      </trkpt>
      <trkpt lat="44.82815" lon="6.80909">
        <ele>2225</ele>
        <time>2021-07-10T10:03:26Z</time>
      </trkpt>
      <trkpt lat="44.82812" lon="6.80887">
        <ele>2233.1</ele>
        <time>2021-07-10T10:03:56Z</time>
      </trkpt>
      <trkpt lat="44.82805" lon="6.80868">
        <ele>2237.3</ele>
        <time>2021-07-10T10:04:27Z</time>
      </trkpt>
      <trkpt lat="44.82794" lon="6.80854">
        <ele>2240.4</ele>
        <time>2021-07-10T10:04:57Z</time>
      </trkpt>
      <trkpt lat="44.82788" lon="6.80839">
        <ele>2246.5</ele>
        <time>2021-07-10T10:05:27Z</time>
      </trkpt>
      <trkpt lat="44.82779" lon="6.8082">
        <ele>2251.7</ele>
        <time>2021-07-10T10:05:58Z</time>
      </trkpt>
      <trkpt lat="44.82769" lon="6.80813">
        <ele>2259.1</ele>
        <time>2021-07-10T10:06:29Z</time>
      </trkpt>
      <trkpt lat="44.82762" lon="6.80802">
        <ele>2262.7</ele>
        <time>2021-07-10T10:06:59Z</time>
      </trkpt>
      <trkpt lat="44.8275" lon="6.80794">
        <ele>2265.4</ele>
        <time>2021-07-10T10:07:29Z</time>
      </trkpt>
      <trkpt lat="44.82738" lon="6.80794">
        <ele>2266.8</ele>
        <time>2021-07-10T10:08:01Z</time>
      </trkpt>
      <trkpt lat="44.82728" lon="6.80806">
        <ele>2275.4</ele>
        <time>2021-07-10T10:08:31Z</time>
      </trkpt>
      <trkpt lat="44.82724" lon="6.80788">
        <ele>2276.7</ele>
        <time>2021-07-10T10:09:02Z</time>
      </trkpt>
      <trkpt lat="44.82709" lon="6.80788">
        <ele>2283.2</ele>
        <time>2021-07-10T10:09:33Z</time>
      </trkpt>
      <trkpt lat="44.827" lon="6.80781">
        <ele>2286.1</ele>
        <time>2021-07-10T10:10:04Z</time>
      </trkpt>
      <trkpt lat="44.82696" lon="6.8077">
        <ele>2291.4</ele>
        <time>2021-07-10T10:10:38Z</time>
      </trkpt>
      <trkpt lat="44.82687" lon="6.80765">
        <ele>2298</ele>
        <time>2021-07-10T10:11:17Z</time>
      </trkpt>
      <trkpt lat="44.82682" lon="6.80755">
        <ele>2300.9</ele>
        <time>2021-07-10T10:11:52Z</time>
      </trkpt>
      <trkpt lat="44.82683" lon="6.80739">
        <ele>2304.9</ele>
        <time>2021-07-10T10:12:22Z</time>
      </trkpt>
      <trkpt lat="44.82674" lon="6.8074">
        <ele>2310.6</ele>
        <time>2021-07-10T10:12:54Z</time>
      </trkpt>
      <trkpt lat="44.82675" lon="6.80726">
        <ele>2316.5</ele>
        <time>2021-07-10T10:13:29Z</time>
      </trkpt>
      <trkpt lat="44.82666" lon="6.80723">
        <ele>2315.5</ele>
        <time>2021-07-10T10:14:08Z</time>
      </trkpt>
      <trkpt lat="44.82658" lon="6.80717">
        <ele>2319.2</ele>
        <time>2021-07-10T10:14:44Z</time>
      </trkpt>
      <trkpt lat="44.82646" lon="6.80719">
        <ele>2325.4</ele>
        <time>2021-07-10T10:15:15Z</time>
      </trkpt>
      <trkpt lat="44.82635" lon="6.80724">
        <ele>2329.9</ele>
        <time>2021-07-10T10:15:45Z</time>
      </trkpt>
      <trkpt lat="44.82626" lon="6.80725">
        <ele>2338</ele>
        <time>2021-07-10T10:16:19Z</time>
      </trkpt>
      <trkpt lat="44.8262" lon="6.80714">
        <ele>2343.5</ele>
        <time>2021-07-10T10:16:50Z</time>
      </trkpt>
      <trkpt lat="44.82613" lon="6.80707">
        <ele>2350.4</ele>
        <time>2021-07-10T10:17:44Z</time>
      </trkpt>
      <trkpt lat="44.826" lon="6.807">
        <ele>2353.9</ele>
        <time>2021-07-10T10:18:15Z</time>
      </trkpt>
      <trkpt lat="44.8259" lon="6.80701">
        <ele>2357.9</ele>
        <time>2021-07-10T10:18:48Z</time>
      </trkpt>
      <trkpt lat="44.82579" lon="6.80687">
        <ele>2359.3</ele>
        <time>2021-07-10T10:19:19Z</time>
      </trkpt>
      <trkpt lat="44.82575" lon="6.80675">
        <ele>2362.2</ele>
        <time>2021-07-10T10:19:49Z</time>
      </trkpt>
      <trkpt lat="44.82566" lon="6.80668">
        <ele>2367.8</ele>
        <time>2021-07-10T10:20:20Z</time>
      </trkpt>
      <trkpt lat="44.82554" lon="6.80663">
        <ele>2370.1</ele>
        <time>2021-07-10T10:20:51Z</time>
      </trkpt>
      <trkpt lat="44.82547" lon="6.80655">
        <ele>2374.1</ele>
        <time>2021-07-10T10:21:41Z</time>
      </trkpt>
      <trkpt lat="44.82524" lon="6.80648">
        <ele>2371.1</ele>
        <time>2021-07-10T10:22:12Z</time>
      </trkpt>
      <trkpt lat="44.82504" lon="6.80651">
        <ele>2373.1</ele>
        <time>2021-07-10T10:22:43Z</time>
      </trkpt>
      <trkpt lat="44.8248" lon="6.80658">
        <ele>2371.7</ele>
        <time>2021-07-10T10:23:14Z</time>
      </trkpt>
      <trkpt lat="44.82458" lon="6.8066">
        <ele>2375.5</ele>
        <time>2021-07-10T10:23:45Z</time>
      </trkpt>
      <trkpt lat="44.82438" lon="6.80663">
        <ele>2384.3</ele>
        <time>2021-07-10T10:24:16Z</time>
      </trkpt>
      <trkpt lat="44.82422" lon="6.80663">
        <ele>2392.9</ele>
        <time>2021-07-10T10:24:46Z</time>
      </trkpt>
      <trkpt lat="44.82402" lon="6.80659">
        <ele>2392.8</ele>
        <time>2021-07-10T10:25:17Z</time>
      </trkpt>
      <trkpt lat="44.82393" lon="6.80662">
        <ele>2403.8</ele>
        <time>2021-07-10T10:35:46Z</time>
      </trkpt>
      <trkpt lat="44.82381" lon="6.80677">
        <ele>2407.3</ele>
        <time>2021-07-10T10:36:17Z</time>
      </trkpt>
      <trkpt lat="44.82361" lon="6.80684">
        <ele>2410</ele>
        <time>2021-07-10T10:36:47Z</time>
      </trkpt>
      <trkpt lat="44.82339" lon="6.80676">
        <ele>2414.8</ele>
        <time>2021-07-10T10:37:17Z</time>
      </trkpt>
      <trkpt lat="44.82321" lon="6.80669">
        <ele>2418.2</ele>
        <time>2021-07-10T10:37:49Z</time>
      </trkpt>
      <trkpt lat="44.82307" lon="6.8065">
        <ele>2422</ele>
        <time>2021-07-10T10:38:19Z</time>
      </trkpt>
      <trkpt lat="44.82292" lon="6.80645">
        <ele>2427.4</ele>
        <time>2021-07-10T10:38:50Z</time>
      </trkpt>
      <trkpt lat="44.82275" lon="6.80636">
        <ele>2431</ele>
        <time>2021-07-10T10:39:21Z</time>
      </trkpt>
      <trkpt lat="44.82259" lon="6.8063">
        <ele>2435.2</ele>
        <time>2021-07-10T10:39:51Z</time>
      </trkpt>
      <trkpt lat="44.82241" lon="6.80622">
        <ele>2438.5</ele>
        <time>2021-07-10T10:40:22Z</time>
      </trkpt>
      <trkpt lat="44.82224" lon="6.80614">
        <ele>2443.8</ele>
        <time>2021-07-10T10:40:54Z</time>
      </trkpt>
      <trkpt lat="44.82203" lon="6.80608">
        <ele>2447.4</ele>
        <time>2021-07-10T10:41:24Z</time>
      </trkpt>
      <trkpt lat="44.8219" lon="6.8061">
        <ele>2446.4</ele>
        <time>2021-07-10T10:41:54Z</time>
      </trkpt>
      <trkpt lat="44.82171" lon="6.80605">
        <ele>2449.1</ele>
        <time>2021-07-10T10:42:25Z</time>
      </trkpt>
      <trkpt lat="44.82148" lon="6.80591">
        <ele>2451.3</ele>
        <time>2021-07-10T10:42:55Z</time>
      </trkpt>
      <trkpt lat="44.82125" lon="6.8059">
        <ele>2451.7</ele>
        <time>2021-07-10T10:43:26Z</time>
      </trkpt>
      <trkpt lat="44.82103" lon="6.80573">
        <ele>2452</ele>
        <time>2021-07-10T10:43:56Z</time>
      </trkpt>
      <trkpt lat="44.82086" lon="6.80559">
        <ele>2455.7</ele>
        <time>2021-07-10T10:44:27Z</time>
      </trkpt>
      <trkpt lat="44.82078" lon="6.80539">
        <ele>2457.3</ele>
        <time>2021-07-10T10:44:58Z</time>
      </trkpt>
      <trkpt lat="44.8207" lon="6.80512">
        <ele>2462.1</ele>
        <time>2021-07-10T10:45:28Z</time>
      </trkpt>
      <trkpt lat="44.82059" lon="6.8049">
        <ele>2464.7</ele>
        <time>2021-07-10T10:45:58Z</time>
      </trkpt>
      <trkpt lat="44.82046" lon="6.80467">
        <ele>2466.8</ele>
        <time>2021-07-10T10:46:30Z</time>
      </trkpt>
      <trkpt lat="44.82034" lon="6.80446">
        <ele>2474</ele>
        <time>2021-07-10T10:47:00Z</time>
      </trkpt>
      <trkpt lat="44.82021" lon="6.80428">
        <ele>2477.1</ele>
        <time>2021-07-10T10:47:30Z</time>
      </trkpt>
      <trkpt lat="44.81999" lon="6.80411">
        <ele>2478.8</ele>
        <time>2021-07-10T10:48:01Z</time>
      </trkpt>
      <trkpt lat="44.8198" lon="6.80398">
        <ele>2479.7</ele>
        <time>2021-07-10T10:48:32Z</time>
      </trkpt>
      <trkpt lat="44.81965" lon="6.80378">
        <ele>2484</ele>
        <time>2021-07-10T10:49:03Z</time>
      </trkpt>
      <trkpt lat="44.81947" lon="6.80364">
        <ele>2487.8</ele>
        <time>2021-07-10T10:49:35Z</time>
      </trkpt>
      <trkpt lat="44.81927" lon="6.80363">
        <ele>2490.4</ele>
        <time>2021-07-10T10:50:05Z</time>
      </trkpt>
      <trkpt lat="44.81909" lon="6.80365">
        <ele>2494.4</ele>
        <time>2021-07-10T10:50:36Z</time>
      </trkpt>
      <trkpt lat="44.8189" lon="6.80358">
        <ele>2499.1</ele>
        <time>2021-07-10T10:51:07Z</time>
      </trkpt>
      <trkpt lat="44.81876" lon="6.8034">
        <ele>2501.6</ele>
        <time>2021-07-10T10:51:38Z</time>
      </trkpt>
      <trkpt lat="44.81858" lon="6.80339">
        <ele>2505.9</ele>
        <time>2021-07-10T10:52:09Z</time>
      </trkpt>
      <trkpt lat="44.81838" lon="6.80347">
        <ele>2511.9</ele>
        <time>2021-07-10T10:52:40Z</time>
      </trkpt>
      <trkpt lat="44.81827" lon="6.80358">
        <ele>2513.8</ele>
        <time>2021-07-10T10:53:11Z</time>
      </trkpt>
      <trkpt lat="44.81819" lon="6.80366">
        <ele>2514.9</ele>
        <time>2021-07-10T10:53:49Z</time>
      </trkpt>
      <trkpt lat="44.81808" lon="6.80386">
        <ele>2518.6</ele>
        <time>2021-07-10T10:54:20Z</time>
      </trkpt>
      <trkpt lat="44.818" lon="6.80404">
        <ele>2522.6</ele>
        <time>2021-07-10T10:54:50Z</time>
      </trkpt>
      <trkpt lat="44.81799" lon="6.8042">
        <ele>2530.3</ele>
        <time>2021-07-10T10:55:21Z</time>
      </trkpt>
      <trkpt lat="44.81791" lon="6.80437">
        <ele>2532.8</ele>
        <time>2021-07-10T10:55:52Z</time>
      </trkpt>
      <trkpt lat="44.81778" lon="6.80438">
        <ele>2536.4</ele>
        <time>2021-07-10T10:56:22Z</time>
      </trkpt>
      <trkpt lat="44.8176" lon="6.80437">
        <ele>2544</ele>
        <time>2021-07-10T10:56:53Z</time>
      </trkpt>
      <trkpt lat="44.8174" lon="6.80442">
        <ele>2550.2</ele>
        <time>2021-07-10T10:57:23Z</time>
      </trkpt>
      <trkpt lat="44.81718" lon="6.80434">
        <ele>2555</ele>
        <time>2021-07-10T10:57:54Z</time>
      </trkpt>
      <trkpt lat="44.81696" lon="6.80436">
        <ele>2555.6</ele>
        <time>2021-07-10T10:58:24Z</time>
      </trkpt>
      <trkpt lat="44.81675" lon="6.80443">
        <ele>2559.9</ele>
        <time>2021-07-10T10:58:55Z</time>
      </trkpt>
      <trkpt lat="44.81653" lon="6.80436">
        <ele>2563</ele>
        <time>2021-07-10T10:59:25Z</time>
      </trkpt>
      <trkpt lat="44.81632" lon="6.80426">
        <ele>2566.1</ele>
        <time>2021-07-10T10:59:56Z</time>
      </trkpt>
      <trkpt lat="44.81618" lon="6.80424">
        <ele>2566.5</ele>
        <time>2021-07-10T11:00:26Z</time>
      </trkpt>
      <trkpt lat="44.81595" lon="6.80427">
        <ele>2571.7</ele>
        <time>2021-07-10T11:00:56Z</time>
      </trkpt>
      <trkpt lat="44.81573" lon="6.80423">
        <ele>2573</ele>
        <time>2021-07-10T11:01:27Z</time>
      </trkpt>
      <trkpt lat="44.81552" lon="6.8042">
        <ele>2579.2</ele>
        <time>2021-07-10T11:01:57Z</time>
      </trkpt>
      <trkpt lat="44.81533" lon="6.80416">
        <ele>2582.8</ele>
        <time>2021-07-10T11:02:29Z</time>
      </trkpt>
      <trkpt lat="44.81526" lon="6.80408">
        <ele>2578.7</ele>
        <time>2021-07-10T11:04:32Z</time>
      </trkpt>
      <trkpt lat="44.815" lon="6.80397">
        <ele>2577.5</ele>
        <time>2021-07-10T11:05:02Z</time>
      </trkpt>
      <trkpt lat="44.81474" lon="6.80375">
        <ele>2576</ele>
        <time>2021-07-10T11:05:33Z</time>
      </trkpt>
      <trkpt lat="44.81453" lon="6.80352">
        <ele>2575.7</ele>
        <time>2021-07-10T11:06:05Z</time>
      </trkpt>
      <trkpt lat="44.81463" lon="6.80336">
        <ele>2575</ele>
        <time>2021-07-10T11:06:36Z</time>
      </trkpt>
      <trkpt lat="44.81459" lon="6.80324">
        <ele>2575.3</ele>
        <time>2021-07-10T11:07:35Z</time>
      </trkpt>
      <trkpt lat="44.81456" lon="6.80309">
        <ele>2578.1</ele>
        <time>2021-07-10T11:08:05Z</time>
      </trkpt>
      <trkpt lat="44.8146" lon="6.80297">
        <ele>2578.1</ele>
        <time>2021-07-10T11:15:23Z</time>
      </trkpt>
      <trkpt lat="44.8146" lon="6.80282">
        <ele>2598.7</ele>
        <time>2021-07-10T11:40:37Z</time>
      </trkpt>
      <trkpt lat="44.81457" lon="6.80297">
        <ele>2580</ele>
        <time>2021-07-10T11:41:08Z</time>
      </trkpt>
      <trkpt lat="44.81448" lon="6.80298">
        <ele>2570.8</ele>
        <time>2021-07-10T12:03:11Z</time>
      </trkpt>
      <trkpt lat="44.81423" lon="6.80311">
        <ele>2568.6</ele>
        <time>2021-07-10T12:03:41Z</time>
      </trkpt>
      <trkpt lat="44.81457" lon="6.80298">
        <ele>2571</ele>
        <time>2021-07-10T12:04:11Z</time>
      </trkpt>
      <trkpt lat="44.81447" lon="6.80296">
        <ele>2574.7</ele>
        <time>2021-07-10T12:04:41Z</time>
      </trkpt>
      <trkpt lat="44.81416" lon="6.80277">
        <ele>2571.9</ele>
        <time>2021-07-10T12:05:12Z</time>
      </trkpt>
      <trkpt lat="44.81386" lon="6.80258">
        <ele>2568.2</ele>
        <time>2021-07-10T12:05:42Z</time>
      </trkpt>
      <trkpt lat="44.81362" lon="6.80235">
        <ele>2563</ele>
        <time>2021-07-10T12:06:13Z</time>
      </trkpt>
      <trkpt lat="44.81334" lon="6.80208">
        <ele>2555.4</ele>
        <time>2021-07-10T12:06:43Z</time>
      </trkpt>
      <trkpt lat="44.81303" lon="6.80184">
        <ele>2546.2</ele>
        <time>2021-07-10T12:07:15Z</time>
      </trkpt>
      <trkpt lat="44.81273" lon="6.80156">
        <ele>2539.1</ele>
        <time>2021-07-10T12:07:45Z</time>
      </trkpt>
      <trkpt lat="44.81234" lon="6.80157">
        <ele>2534.8</ele>
        <time>2021-07-10T12:08:15Z</time>
      </trkpt>
      <trkpt lat="44.81199" lon="6.80161">
        <ele>2533.5</ele>
        <time>2021-07-10T12:08:45Z</time>
      </trkpt>
      <trkpt lat="44.81159" lon="6.80162">
        <ele>2528.9</ele>
        <time>2021-07-10T12:09:16Z</time>
      </trkpt>
      <trkpt lat="44.81129" lon="6.80152">
        <ele>2520.6</ele>
        <time>2021-07-10T12:09:46Z</time>
      </trkpt>
      <trkpt lat="44.81093" lon="6.80144">
        <ele>2517.4</ele>
        <time>2021-07-10T12:10:18Z</time>
      </trkpt>
      <trkpt lat="44.81057" lon="6.80118">
        <ele>2511.5</ele>
        <time>2021-07-10T12:10:48Z</time>
      </trkpt>
      <trkpt lat="44.81023" lon="6.80093">
        <ele>2509.5</ele>
        <time>2021-07-10T12:11:18Z</time>
      </trkpt>
      <trkpt lat="44.80987" lon="6.80078">
        <ele>2507.2</ele>
        <time>2021-07-10T12:11:48Z</time>
      </trkpt>
      <trkpt lat="44.80954" lon="6.80058">
        <ele>2499.8</ele>
        <time>2021-07-10T12:12:19Z</time>
      </trkpt>
      <trkpt lat="44.8092" lon="6.80035">
        <ele>2493.9</ele>
        <time>2021-07-10T12:12:49Z</time>
      </trkpt>
      <trkpt lat="44.80883" lon="6.80026">
        <ele>2495.5</ele>
        <time>2021-07-10T12:13:19Z</time>
      </trkpt>
      <trkpt lat="44.80847" lon="6.80007">
        <ele>2490.7</ele>
        <time>2021-07-10T12:13:50Z</time>
      </trkpt>
      <trkpt lat="44.80813" lon="6.79985">
        <ele>2482.8</ele>
        <time>2021-07-10T12:14:21Z</time>
      </trkpt>
      <trkpt lat="44.80782" lon="6.79957">
        <ele>2476</ele>
        <time>2021-07-10T12:14:51Z</time>
      </trkpt>
      <trkpt lat="44.80751" lon="6.79933">
        <ele>2467.9</ele>
        <time>2021-07-10T12:15:21Z</time>
      </trkpt>
      <trkpt lat="44.80718" lon="6.79902">
        <ele>2466.6</ele>
        <time>2021-07-10T12:15:52Z</time>
      </trkpt>
      <trkpt lat="44.80689" lon="6.79879">
        <ele>2463.9</ele>
        <time>2021-07-10T12:16:22Z</time>
      </trkpt>
      <trkpt lat="44.80659" lon="6.7985">
        <ele>2457.6</ele>
        <time>2021-07-10T12:16:53Z</time>
      </trkpt>
      <trkpt lat="44.80628" lon="6.79838">
        <ele>2449.5</ele>
        <time>2021-07-10T12:17:23Z</time>
      </trkpt>
      <trkpt lat="44.80601" lon="6.79814">
        <ele>2441.1</ele>
        <time>2021-07-10T12:17:53Z</time>
      </trkpt>
      <trkpt lat="44.80582" lon="6.7981">
        <ele>2430.5</ele>
        <time>2021-07-10T12:18:23Z</time>
      </trkpt>
      <trkpt lat="44.80552" lon="6.79782">
        <ele>2421.5</ele>
        <time>2021-07-10T12:18:54Z</time>
      </trkpt>
      <trkpt lat="44.8052" lon="6.79769">
        <ele>2414.4</ele>
        <time>2021-07-10T12:19:24Z</time>
      </trkpt>
      <trkpt lat="44.80488" lon="6.79769">
        <ele>2408.8</ele>
        <time>2021-07-10T12:19:55Z</time>
      </trkpt>
      <trkpt lat="44.80454" lon="6.79766">
        <ele>2401.9</ele>
        <time>2021-07-10T12:20:26Z</time>
      </trkpt>
      <trkpt lat="44.80424" lon="6.7977">
        <ele>2396.5</ele>
        <time>2021-07-10T12:20:56Z</time>
      </trkpt>
      <trkpt lat="44.80391" lon="6.79768">
        <ele>2385.8</ele>
        <time>2021-07-10T12:21:27Z</time>
      </trkpt>
      <trkpt lat="44.80368" lon="6.79771">
        <ele>2374.7</ele>
        <time>2021-07-10T12:21:59Z</time>
      </trkpt>
      <trkpt lat="44.80338" lon="6.7976">
        <ele>2362.4</ele>
        <time>2021-07-10T12:22:29Z</time>
      </trkpt>
      <trkpt lat="44.80317" lon="6.79756">
        <ele>2360.8</ele>
        <time>2021-07-10T12:22:59Z</time>
      </trkpt>
      <trkpt lat="44.80295" lon="6.7972">
        <ele>2355.9</ele>
        <time>2021-07-10T12:23:29Z</time>
      </trkpt>
      <trkpt lat="44.80264" lon="6.79723">
        <ele>2345.3</ele>
        <time>2021-07-10T12:24:00Z</time>
      </trkpt>
      <trkpt lat="44.80233" lon="6.79714">
        <ele>2337.9</ele>
        <time>2021-07-10T12:24:30Z</time>
      </trkpt>
      <trkpt lat="44.80212" lon="6.79681">
        <ele>2330.4</ele>
        <time>2021-07-10T12:25:01Z</time>
      </trkpt>
      <trkpt lat="44.80209" lon="6.79631">
        <ele>2324.7</ele>
        <time>2021-07-10T12:25:32Z</time>
      </trkpt>
      <trkpt lat="44.80197" lon="6.79586">
        <ele>2314.1</ele>
        <time>2021-07-10T12:26:03Z</time>
      </trkpt>
      <trkpt lat="44.80179" lon="6.7957">
        <ele>2308.5</ele>
        <time>2021-07-10T12:26:35Z</time>
      </trkpt>
      <trkpt lat="44.80158" lon="6.79596">
        <ele>2305.1</ele>
        <time>2021-07-10T12:27:05Z</time>
      </trkpt>
      <trkpt lat="44.80141" lon="6.79596">
        <ele>2296.8</ele>
        <time>2021-07-10T12:27:36Z</time>
      </trkpt>
      <trkpt lat="44.80128" lon="6.79586">
        <ele>2289.8</ele>
        <time>2021-07-10T12:28:07Z</time>
      </trkpt>
      <trkpt lat="44.8012" lon="6.79598">
        <ele>2286.2</ele>
        <time>2021-07-10T12:28:37Z</time>
      </trkpt>
      <trkpt lat="44.80117" lon="6.79579">
        <ele>2283.7</ele>
        <time>2021-07-10T12:29:08Z</time>
      </trkpt>
      <trkpt lat="44.80118" lon="6.79579">
        <ele>2284.3</ele>
        <time>2021-07-10T12:31:07Z</time>
      </trkpt>
      <trkpt lat="44.80117" lon="6.79566">
        <ele>2284.1</ele>
        <time>2021-07-10T12:34:05Z</time>
      </trkpt>
      <trkpt lat="44.80132" lon="6.7952">
        <ele>2277.8</ele>
        <time>2021-07-10T12:34:36Z</time>
      </trkpt>
      <trkpt lat="44.80144" lon="6.79492">
        <ele>2281.2</ele>
        <time>2021-07-10T12:35:06Z</time>
      </trkpt>
      <trkpt lat="44.80123" lon="6.79466">
        <ele>2285</ele>
        <time>2021-07-10T12:35:36Z</time>
      </trkpt>
      <trkpt lat="44.80095" lon="6.79451">
        <ele>2290.2</ele>
        <time>2021-07-10T12:36:07Z</time>
      </trkpt>
      <trkpt lat="44.80064" lon="6.79447">
        <ele>2295.4</ele>
        <time>2021-07-10T12:36:37Z</time>
      </trkpt>
      <trkpt lat="44.80032" lon="6.79433">
        <ele>2292</ele>
        <time>2021-07-10T12:37:08Z</time>
      </trkpt>
      <trkpt lat="44.8001" lon="6.79416">
        <ele>2292.5</ele>
        <time>2021-07-10T12:37:38Z</time>
      </trkpt>
      <trkpt lat="44.79981" lon="6.79415">
        <ele>2293.4</ele>
        <time>2021-07-10T12:38:09Z</time>
      </trkpt>
      <trkpt lat="44.79956" lon="6.79399">
        <ele>2296.7</ele>
        <time>2021-07-10T12:38:39Z</time>
      </trkpt>
      <trkpt lat="44.79923" lon="6.79384">
        <ele>2298.4</ele>
        <time>2021-07-10T12:39:11Z</time>
      </trkpt>
      <trkpt lat="44.79897" lon="6.79346">
        <ele>2297</ele>
        <time>2021-07-10T12:39:41Z</time>
      </trkpt>
      <trkpt lat="44.79867" lon="6.79328">
        <ele>2295</ele>
        <time>2021-07-10T12:40:12Z</time>
      </trkpt>
      <trkpt lat="44.79835" lon="6.79312">
        <ele>2292.9</ele>
        <time>2021-07-10T12:40:42Z</time>
      </trkpt>
      <trkpt lat="44.79803" lon="6.79295">
        <ele>2293.8</ele>
        <time>2021-07-10T12:41:12Z</time>
      </trkpt>
      <trkpt lat="44.79774" lon="6.79281">
        <ele>2294.1</ele>
        <time>2021-07-10T12:41:43Z</time>
      </trkpt>
      <trkpt lat="44.79744" lon="6.79298">
        <ele>2300.3</ele>
        <time>2021-07-10T12:42:13Z</time>
      </trkpt>
      <trkpt lat="44.79715" lon="6.79303">
        <ele>2302.6</ele>
        <time>2021-07-10T12:42:43Z</time>
      </trkpt>
      <trkpt lat="44.7969" lon="6.7928">
        <ele>2304.2</ele>
        <time>2021-07-10T12:43:14Z</time>
      </trkpt>
      <trkpt lat="44.79678" lon="6.79235">
        <ele>2298.8</ele>
        <time>2021-07-10T12:43:45Z</time>
      </trkpt>
      <trkpt lat="44.79657" lon="6.79197">
        <ele>2293.5</ele>
        <time>2021-07-10T12:44:17Z</time>
      </trkpt>
      <trkpt lat="44.79634" lon="6.79155">
        <ele>2288.1</ele>
        <time>2021-07-10T12:44:47Z</time>
      </trkpt>
      <trkpt lat="44.79612" lon="6.79131">
        <ele>2290.1</ele>
        <time>2021-07-10T12:45:17Z</time>
      </trkpt>
      <trkpt lat="44.79588" lon="6.79108">
        <ele>2293.3</ele>
        <time>2021-07-10T12:45:47Z</time>
      </trkpt>
      <trkpt lat="44.79558" lon="6.79095">
        <ele>2296.4</ele>
        <time>2021-07-10T12:46:18Z</time>
      </trkpt>
      <trkpt lat="44.79536" lon="6.79076">
        <ele>2300.2</ele>
        <time>2021-07-10T12:46:49Z</time>
      </trkpt>
      <trkpt lat="44.79509" lon="6.79063">
        <ele>2304.3</ele>
        <time>2021-07-10T12:47:19Z</time>
      </trkpt>
      <trkpt lat="44.79481" lon="6.79053">
        <ele>2308.2</ele>
        <time>2021-07-10T12:47:50Z</time>
      </trkpt>
      <trkpt lat="44.79452" lon="6.79024">
        <ele>2306.9</ele>
        <time>2021-07-10T12:48:20Z</time>
      </trkpt>
      <trkpt lat="44.7943" lon="6.78997">
        <ele>2307.1</ele>
        <time>2021-07-10T12:48:51Z</time>
      </trkpt>
      <trkpt lat="44.79405" lon="6.78959">
        <ele>2306.6</ele>
        <time>2021-07-10T12:49:21Z</time>
      </trkpt>
      <trkpt lat="44.79379" lon="6.78923">
        <ele>2302.1</ele>
        <time>2021-07-10T12:49:53Z</time>
      </trkpt>
      <trkpt lat="44.79353" lon="6.78886">
        <ele>2299.8</ele>
        <time>2021-07-10T12:50:23Z</time>
      </trkpt>
      <trkpt lat="44.79324" lon="6.78863">
        <ele>2296.1</ele>
        <time>2021-07-10T12:50:54Z</time>
      </trkpt>
      <trkpt lat="44.7929" lon="6.78868">
        <ele>2297.5</ele>
        <time>2021-07-10T12:51:25Z</time>
      </trkpt>
      <trkpt lat="44.79259" lon="6.78882">
        <ele>2297</ele>
        <time>2021-07-10T12:51:55Z</time>
      </trkpt>
      <trkpt lat="44.7925" lon="6.78877">
        <ele>2293.2</ele>
        <time>2021-07-10T12:54:13Z</time>
      </trkpt>
      <trkpt lat="44.79253" lon="6.78879">
        <ele>2291.3</ele>
        <time>2021-07-10T12:58:47Z</time>
      </trkpt>
      <trkpt lat="44.79243" lon="6.78882">
        <ele>2290.2</ele>
        <time>2021-07-10T13:01:21Z</time>
      </trkpt>
      <trkpt lat="44.79208" lon="6.78877">
        <ele>2287.6</ele>
        <time>2021-07-10T13:01:53Z</time>
      </trkpt>
      <trkpt lat="44.79184" lon="6.78848">
        <ele>2286.3</ele>
        <time>2021-07-10T13:02:23Z</time>
      </trkpt>
      <trkpt lat="44.79159" lon="6.7881">
        <ele>2284.3</ele>
        <time>2021-07-10T13:02:53Z</time>
      </trkpt>
      <trkpt lat="44.79128" lon="6.78786">
        <ele>2279.9</ele>
        <time>2021-07-10T13:03:24Z</time>
      </trkpt>
      <trkpt lat="44.79102" lon="6.7876">
        <ele>2272.6</ele>
        <time>2021-07-10T13:03:54Z</time>
      </trkpt>
      <trkpt lat="44.79091" lon="6.78715">
        <ele>2266.3</ele>
        <time>2021-07-10T13:04:25Z</time>
      </trkpt>
      <trkpt lat="44.79069" lon="6.78675">
        <ele>2260.6</ele>
        <time>2021-07-10T13:04:55Z</time>
      </trkpt>
      <trkpt lat="44.79042" lon="6.78654">
        <ele>2255.9</ele>
        <time>2021-07-10T13:05:25Z</time>
      </trkpt>
      <trkpt lat="44.79011" lon="6.78633">
        <ele>2252</ele>
        <time>2021-07-10T13:05:55Z</time>
      </trkpt>
      <trkpt lat="44.78979" lon="6.78625">
        <ele>2244.4</ele>
        <time>2021-07-10T13:06:25Z</time>
      </trkpt>
      <trkpt lat="44.78951" lon="6.78618">
        <ele>2237.7</ele>
        <time>2021-07-10T13:06:56Z</time>
      </trkpt>
      <trkpt lat="44.78953" lon="6.78645">
        <ele>2230.6</ele>
        <time>2021-07-10T13:07:27Z</time>
      </trkpt>
      <trkpt lat="44.78967" lon="6.78681">
        <ele>2221</ele>
        <time>2021-07-10T13:07:59Z</time>
      </trkpt>
      <trkpt lat="44.78941" lon="6.78662">
        <ele>2222</ele>
        <time>2021-07-10T13:08:29Z</time>
      </trkpt>
      <trkpt lat="44.78909" lon="6.78631">
        <ele>2217.7</ele>
        <time>2021-07-10T13:09:00Z</time>
      </trkpt>
      <trkpt lat="44.78888" lon="6.78588">
        <ele>2217.8</ele>
        <time>2021-07-10T13:09:30Z</time>
      </trkpt>
      <trkpt lat="44.78876" lon="6.78537">
        <ele>2215.7</ele>
        <time>2021-07-10T13:10:00Z</time>
      </trkpt>
      <trkpt lat="44.78847" lon="6.78506">
        <ele>2212.7</ele>
        <time>2021-07-10T13:10:31Z</time>
      </trkpt>
      <trkpt lat="44.78825" lon="6.78469">
        <ele>2210.8</ele>
        <time>2021-07-10T13:11:01Z</time>
      </trkpt>
      <trkpt lat="44.78813" lon="6.78419">
        <ele>2207.3</ele>
        <time>2021-07-10T13:11:32Z</time>
      </trkpt>
      <trkpt lat="44.78792" lon="6.78388">
        <ele>2205.4</ele>
        <time>2021-07-10T13:12:02Z</time>
      </trkpt>
      <trkpt lat="44.78778" lon="6.7837">
        <ele>2201.9</ele>
        <time>2021-07-10T13:12:32Z</time>
      </trkpt>
      <trkpt lat="44.78743" lon="6.7835">
        <ele>2205.9</ele>
        <time>2021-07-10T13:13:03Z</time>
      </trkpt>
      <trkpt lat="44.7871" lon="6.78326">
        <ele>2203.2</ele>
        <time>2021-07-10T13:13:35Z</time>
      </trkpt>
      <trkpt lat="44.78677" lon="6.78322">
        <ele>2203.2</ele>
        <time>2021-07-10T13:14:06Z</time>
      </trkpt>
      <trkpt lat="44.78652" lon="6.78305">
        <ele>2196.9</ele>
        <time>2021-07-10T13:14:36Z</time>
      </trkpt>
      <trkpt lat="44.78631" lon="6.78283">
        <ele>2189</ele>
        <time>2021-07-10T13:15:06Z</time>
      </trkpt>
      <trkpt lat="44.78605" lon="6.7826">
        <ele>2186.3</ele>
        <time>2021-07-10T13:15:36Z</time>
      </trkpt>
      <trkpt lat="44.78582" lon="6.78243">
        <ele>2187.2</ele>
        <time>2021-07-10T13:16:06Z</time>
      </trkpt>
      <trkpt lat="44.78551" lon="6.78228">
        <ele>2179.8</ele>
        <time>2021-07-10T13:16:37Z</time>
      </trkpt>
      <trkpt lat="44.7853" lon="6.78196">
        <ele>2172.8</ele>
        <time>2021-07-10T13:17:08Z</time>
      </trkpt>
      <trkpt lat="44.78511" lon="6.7817">
        <ele>2169.1</ele>
        <time>2021-07-10T13:17:38Z</time>
      </trkpt>
      <trkpt lat="44.78488" lon="6.78143">
        <ele>2164.4</ele>
        <time>2021-07-10T13:18:09Z</time>
      </trkpt>
      <trkpt lat="44.78463" lon="6.78142">
        <ele>2157.6</ele>
        <time>2021-07-10T13:18:39Z</time>
      </trkpt>
      <trkpt lat="44.78436" lon="6.78144">
        <ele>2153.5</ele>
        <time>2021-07-10T13:19:11Z</time>
      </trkpt>
      <trkpt lat="44.78399" lon="6.78143">
        <ele>2149.1</ele>
        <time>2021-07-10T13:19:41Z</time>
      </trkpt>
      <trkpt lat="44.78367" lon="6.78131">
        <ele>2146.9</ele>
        <time>2021-07-10T13:20:11Z</time>
      </trkpt>
      <trkpt lat="44.78335" lon="6.78116">
        <ele>2144.2</ele>
        <time>2021-07-10T13:20:41Z</time>
      </trkpt>
      <trkpt lat="44.78306" lon="6.78105">
        <ele>2140.6</ele>
        <time>2021-07-10T13:21:11Z</time>
      </trkpt>
      <trkpt lat="44.78299" lon="6.78097">
        <ele>2139</ele>
        <time>2021-07-10T13:23:02Z</time>
      </trkpt>
      <trkpt lat="44.78269" lon="6.78072">
        <ele>2131.9</ele>
        <time>2021-07-10T13:23:32Z</time>
      </trkpt>
      <trkpt lat="44.7824" lon="6.78048">
        <ele>2128.1</ele>
        <time>2021-07-10T13:24:03Z</time>
      </trkpt>
      <trkpt lat="44.78216" lon="6.78013">
        <ele>2124.9</ele>
        <time>2021-07-10T13:24:33Z</time>
      </trkpt>
      <trkpt lat="44.78188" lon="6.77985">
        <ele>2120.7</ele>
        <time>2021-07-10T13:25:05Z</time>
      </trkpt>
      <trkpt lat="44.7816" lon="6.77963">
        <ele>2117.7</ele>
        <time>2021-07-10T13:25:35Z</time>
      </trkpt>
      <trkpt lat="44.78127" lon="6.77951">
        <ele>2112.7</ele>
        <time>2021-07-10T13:26:06Z</time>
      </trkpt>
      <trkpt lat="44.78094" lon="6.77932">
        <ele>2109.4</ele>
        <time>2021-07-10T13:26:36Z</time>
      </trkpt>
      <trkpt lat="44.78058" lon="6.77922">
        <ele>2106</ele>
        <time>2021-07-10T13:27:07Z</time>
      </trkpt>
      <trkpt lat="44.78026" lon="6.77903">
        <ele>2103.5</ele>
        <time>2021-07-10T13:27:38Z</time>
      </trkpt>
      <trkpt lat="44.77998" lon="6.77895">
        <ele>2098.6</ele>
        <time>2021-07-10T13:28:08Z</time>
      </trkpt>
      <trkpt lat="44.77968" lon="6.77881">
        <ele>2102.5</ele>
        <time>2021-07-10T13:28:39Z</time>
      </trkpt>
      <trkpt lat="44.77929" lon="6.77875">
        <ele>2102.7</ele>
        <time>2021-07-10T13:29:11Z</time>
      </trkpt>
      <trkpt lat="44.779" lon="6.77861">
        <ele>2102.7</ele>
        <time>2021-07-10T13:29:41Z</time>
      </trkpt>
      <trkpt lat="44.77866" lon="6.77846">
        <ele>2100.1</ele>
        <time>2021-07-10T13:30:11Z</time>
      </trkpt>
      <trkpt lat="44.7783" lon="6.77837">
        <ele>2098.3</ele>
        <time>2021-07-10T13:30:41Z</time>
      </trkpt>
      <trkpt lat="44.77794" lon="6.77818">
        <ele>2095.3</ele>
        <time>2021-07-10T13:31:12Z</time>
      </trkpt>
      <trkpt lat="44.77765" lon="6.77784">
        <ele>2091.5</ele>
        <time>2021-07-10T13:31:43Z</time>
      </trkpt>
      <trkpt lat="44.77753" lon="6.77744">
        <ele>2091.8</ele>
        <time>2021-07-10T13:32:13Z</time>
      </trkpt>
      <trkpt lat="44.77733" lon="6.77702">
        <ele>2087.2</ele>
        <time>2021-07-10T13:32:43Z</time>
      </trkpt>
      <trkpt lat="44.77729" lon="6.77688">
        <ele>2087.3</ele>
        <time>2021-07-10T13:33:57Z</time>
      </trkpt>
      <trkpt lat="44.77716" lon="6.77651">
        <ele>2079.7</ele>
        <time>2021-07-10T13:34:27Z</time>
      </trkpt>
      <trkpt lat="44.77707" lon="6.77611">
        <ele>2073.7</ele>
        <time>2021-07-10T13:34:59Z</time>
      </trkpt>
      <trkpt lat="44.77698" lon="6.7757">
        <ele>2069.9</ele>
        <time>2021-07-10T13:35:29Z</time>
      </trkpt>
      <trkpt lat="44.77698" lon="6.77529">
        <ele>2059.1</ele>
        <time>2021-07-10T13:35:59Z</time>
      </trkpt>
      <trkpt lat="44.77698" lon="6.77495">
        <ele>2050.9</ele>
        <time>2021-07-10T13:36:30Z</time>
      </trkpt>
      <trkpt lat="44.7771" lon="6.7749">
        <ele>2047</ele>
        <time>2021-07-10T13:37:01Z</time>
      </trkpt>
      <trkpt lat="44.77736" lon="6.77473">
        <ele>2046.6</ele>
        <time>2021-07-10T13:37:32Z</time>
      </trkpt>
      <trkpt lat="44.77757" lon="6.77448">
        <ele>2046.3</ele>
        <time>2021-07-10T13:38:02Z</time>
      </trkpt>
      <trkpt lat="44.77783" lon="6.77419">
        <ele>2041.7</ele>
        <time>2021-07-10T13:38:32Z</time>
      </trkpt>
      <trkpt lat="44.77775" lon="6.77412">
        <ele>2037.3</ele>
        <time>2021-07-10T13:39:29Z</time>
      </trkpt>
      <trkpt lat="44.77744" lon="6.77418">
        <ele>2031.9</ele>
        <time>2021-07-10T13:40:00Z</time>
      </trkpt>
      <trkpt lat="44.77759" lon="6.77401">
        <ele>2025.5</ele>
        <time>2021-07-10T13:40:30Z</time>
      </trkpt>
      <trkpt lat="44.77788" lon="6.77388">
        <ele>2015.6</ele>
        <time>2021-07-10T13:41:00Z</time>
      </trkpt>
      <trkpt lat="44.77808" lon="6.77357">
        <ele>2007.6</ele>
        <time>2021-07-10T13:41:31Z</time>
      </trkpt>
      <trkpt lat="44.77835" lon="6.7733">
        <ele>1994.8</ele>
        <time>2021-07-10T13:42:01Z</time>
      </trkpt>
      <trkpt lat="44.7785" lon="6.773">
        <ele>1986.5</ele>
        <time>2021-07-10T13:42:31Z</time>
      </trkpt>
      <trkpt lat="44.77823" lon="6.77291">
        <ele>1984</ele>
        <time>2021-07-10T13:43:02Z</time>
      </trkpt>
      <trkpt lat="44.77797" lon="6.77299">
        <ele>1975.3</ele>
        <time>2021-07-10T13:43:33Z</time>
      </trkpt>
      <trkpt lat="44.77769" lon="6.7731">
        <ele>1968.6</ele>
        <time>2021-07-10T13:44:03Z</time>
      </trkpt>
      <trkpt lat="44.77773" lon="6.77291">
        <ele>1963.9</ele>
        <time>2021-07-10T13:44:35Z</time>
      </trkpt>
      <trkpt lat="44.77791" lon="6.77268">
        <ele>1955.6</ele>
        <time>2021-07-10T13:45:05Z</time>
      </trkpt>
      <trkpt lat="44.77808" lon="6.77245">
        <ele>1952.9</ele>
        <time>2021-07-10T13:45:36Z</time>
      </trkpt>
      <trkpt lat="44.77805" lon="6.77227">
        <ele>1950.5</ele>
        <time>2021-07-10T13:46:06Z</time>
      </trkpt>
      <trkpt lat="44.77776" lon="6.77234">
        <ele>1945.8</ele>
        <time>2021-07-10T13:46:36Z</time>
      </trkpt>
      <trkpt lat="44.77744" lon="6.77235">
        <ele>1939.1</ele>
        <time>2021-07-10T13:47:07Z</time>
      </trkpt>
      <trkpt lat="44.77731" lon="6.77226">
        <ele>1936.4</ele>
        <time>2021-07-10T13:47:38Z</time>
      </trkpt>
      <trkpt lat="44.77762" lon="6.77207">
        <ele>1933.2</ele>
        <time>2021-07-10T13:48:09Z</time>
      </trkpt>
      <trkpt lat="44.77788" lon="6.77177">
        <ele>1927</ele>
        <time>2021-07-10T13:48:41Z</time>
      </trkpt>
      <trkpt lat="44.77796" lon="6.77149">
        <ele>1926.2</ele>
        <time>2021-07-10T13:49:11Z</time>
      </trkpt>
      <trkpt lat="44.77788" lon="6.77153">
        <ele>1927.5</ele>
        <time>2021-07-10T13:50:12Z</time>
      </trkpt>
      <trkpt lat="44.77754" lon="6.7717">
        <ele>1925</ele>
        <time>2021-07-10T13:50:42Z</time>
      </trkpt>
      <trkpt lat="44.77745" lon="6.77151">
        <ele>1917.3</ele>
        <time>2021-07-10T13:51:13Z</time>
      </trkpt>
      <trkpt lat="44.77751" lon="6.77127">
        <ele>1910.1</ele>
        <time>2021-07-10T13:51:44Z</time>
      </trkpt>
      <trkpt lat="44.77737" lon="6.77128">
        <ele>1908.5</ele>
        <time>2021-07-10T13:52:15Z</time>
      </trkpt>
      <trkpt lat="44.77711" lon="6.77128">
        <ele>1905.6</ele>
        <time>2021-07-10T13:52:45Z</time>
      </trkpt>
      <trkpt lat="44.77716" lon="6.77112">
        <ele>1901.3</ele>
        <time>2021-07-10T13:53:15Z</time>
      </trkpt>
      <trkpt lat="44.77744" lon="6.77087">
        <ele>1894</ele>
        <time>2021-07-10T13:53:47Z</time>
      </trkpt>
      <trkpt lat="44.77736" lon="6.77082">
        <ele>1889.4</ele>
        <time>2021-07-10T13:54:35Z</time>
      </trkpt>
      <trkpt lat="44.77703" lon="6.77081">
        <ele>1883.3</ele>
        <time>2021-07-10T13:55:06Z</time>
      </trkpt>
      <trkpt lat="44.77671" lon="6.77093">
        <ele>1873.4</ele>
        <time>2021-07-10T13:55:36Z</time>
      </trkpt>
      <trkpt lat="44.77677" lon="6.77072">
        <ele>1867.7</ele>
        <time>2021-07-10T13:56:07Z</time>
      </trkpt>
      <trkpt lat="44.77694" lon="6.77039">
        <ele>1862</ele>
        <time>2021-07-10T13:56:39Z</time>
      </trkpt>
      <trkpt lat="44.77722" lon="6.77016">
        <ele>1856.4</ele>
        <time>2021-07-10T13:57:09Z</time>
      </trkpt>
      <trkpt lat="44.77741" lon="6.76994">
        <ele>1850.4</ele>
        <time>2021-07-10T13:57:39Z</time>
      </trkpt>
      <trkpt lat="44.77716" lon="6.76981">
        <ele>1846.8</ele>
        <time>2021-07-10T13:58:09Z</time>
      </trkpt>
      <trkpt lat="44.77686" lon="6.76968">
        <ele>1839.5</ele>
        <time>2021-07-10T13:58:41Z</time>
      </trkpt>
      <trkpt lat="44.77674" lon="6.7696">
        <ele>1837.3</ele>
        <time>2021-07-10T13:59:11Z</time>
      </trkpt>
      <trkpt lat="44.77665" lon="6.76959">
        <ele>1837.6</ele>
        <time>2021-07-10T14:00:25Z</time>
      </trkpt>
      <trkpt lat="44.77634" lon="6.7696">
        <ele>1832.4</ele>
        <time>2021-07-10T14:00:55Z</time>
      </trkpt>
      <trkpt lat="44.77609" lon="6.7694">
        <ele>1821.4</ele>
        <time>2021-07-10T14:01:27Z</time>
      </trkpt>
      <trkpt lat="44.77608" lon="6.76926">
        <ele>1819.3</ele>
        <time>2021-07-10T14:02:05Z</time>
      </trkpt>
      <trkpt lat="44.77592" lon="6.76918">
        <ele>1812.9</ele>
        <time>2021-07-10T14:02:36Z</time>
      </trkpt>
      <trkpt lat="44.77587" lon="6.76891">
        <ele>1804</ele>
        <time>2021-07-10T14:03:07Z</time>
      </trkpt>
      <trkpt lat="44.77558" lon="6.76913">
        <ele>1796.2</ele>
        <time>2021-07-10T14:03:38Z</time>
      </trkpt>
      <trkpt lat="44.77542" lon="6.76913">
        <ele>1791.7</ele>
        <time>2021-07-10T14:04:08Z</time>
      </trkpt>
    </trkseg>
  </trk>
</gpx>